<?xml version="1.0" encoding="UTF-8" standalone="no" ?>
<gpx xmlns="http://www.topografix.com/GPX/1/1" xmlns:gpxtpx="http://www.garmin.com/xmlschemas/TrackPointExtension/v1" creator="OruxMaps v.7.4.22" version="1.1" xmlns:xsi="http://www.w3.org/2001/XMLSchema-instance" xsi:schemaLocation="http://www.topografix.com/GPX/1/1 http://www.topografix.com/GPX/1/1/gpx.xsd">
<metadata>
<name><![CDATA[2021-05-16 09:05]]></name>
<link href="https://www.oruxmaps.com">
<text>OruxMaps</text>
</link>
<time>2021-05-16T07:05:47Z</time><bounds maxlat="49.1510191" maxlon="2.7289161" minlat="49.1251044" minlon="2.6900920"/>
</metadata>
<wpt lat="49.1256121" lon="2.6931830">
<ele>85.88</ele>
<time>2021-05-16T07:05:49Z</time>
<name><![CDATA[0000124]]></name>
<sym>Waypoint</sym>
<type>Point de départ</type>
<extensions>
<om:oruxmapsextensions xmlns:om="http://www.oruxmaps.com/oruxmapsextensions/1/0">
<om:ext type="ICON" subtype="0">38</om:ext>
</om:oruxmapsextensions>
</extensions>
</wpt>
<wpt lat="49.1256121" lon="2.6931830">
<ele>85.88</ele>
<time>2021-05-16T07:05:49Z</time>
<name><![CDATA[0000124]]></name>
<sym>Waypoint</sym>
<type>Point de départ</type>
<extensions>
<om:oruxmapsextensions xmlns:om="http://www.oruxmaps.com/oruxmapsextensions/1/0">
<om:ext type="ICON" subtype="0">38</om:ext>
</om:oruxmapsextensions>
</extensions>
</wpt>
<wpt lat="49.1255479" lon="2.6933042">
<ele>77.87</ele>
<time>2021-05-16T10:04:46Z</time>
<name><![CDATA[0000126]]></name>
<desc><![CDATA[<p><br /><h3>Nom: Segment: 1</h3><br />Heure de départ: 09:05 16 mai 2021<br/>Heure d'arrivée: 11:58 16 mai 2021<br/>Distance: 21,7km (02:52)<br/>Temps déplacement: 01:39<br/>Vitesse moyenne: 7,54 km/h<br/>Vitesse moyenne mouv.: 12,36 km/h<br/>Vitesse Max.: 26,37 km/h<br/>Altitude minimale: 74 m<br/>Altitude maximale: 132 m<br/>Vitesse de montée: 324,9 m/h<br/>Vitesse de descente: -399,3 m/h<br/>Gain d'altitude: 508 m<br/>Perte d'altitude: -516 m<br/>Temps de montée: 01:33<br/>Temps de descente: 01:17<br/></p>]]></desc>
<sym>Waypoint</sym>
<type>Point d'arrivée</type>
<extensions>
<om:oruxmapsextensions xmlns:om="http://www.oruxmaps.com/oruxmapsextensions/1/0">
<om:ext type="ICON" subtype="0">15</om:ext>
</om:oruxmapsextensions>
</extensions>
</wpt>
<trk>
<name><![CDATA[2021-05-16 09:05]]></name>
<desc><![CDATA[<p>Heure de départ: 09:05 16 mai 2021<br/>Heure d'arrivée: 11:58 16 mai 2021<br/>Distance: 21,7 km (02:52)<br/>Temps déplacement: 01:39<br/>Vitesse moyenne: 7,54 km/h<br/>Vitesse moyenne mouv.: 13,04 km/h<br/>Vitesse Max.: 26,37 km/h<br/>Altitude minimale: 74 m<br/>Altitude maximale: 132 m<br/>Vitesse de montée: 294,3 m/h<br/>Vitesse de descente: -356,8 m/h<br/>Gain d'altitude: 457 m<br/>Perte d'altitude: -461 m<br/>Temps de montée: 01:33<br/>Temps de descente: 01:17<br/></p><hr align="center" width="480" style="height: 2px; width: 517px"/>]]></desc>
<type>Indéfini</type>
<extensions>
<om:oruxmapsextensions xmlns:om="http://www.oruxmaps.com/oruxmapsextensions/1/0">
<om:ext type="TYPE" subtype="0">0</om:ext>
<om:ext type="DIFFICULTY">0</om:ext>
</om:oruxmapsextensions>
</extensions>
<trkseg>
<trkpt lat="49.1256121" lon="2.6931830">
<ele>85.88</ele>
<time>2021-05-16T07:05:50Z</time>
</trkpt>
<trkpt lat="49.1255962" lon="2.6928895">
<ele>78.96</ele>
<time>2021-05-16T07:12:46Z</time>
</trkpt>
<trkpt lat="49.1255806" lon="2.6926128">
<ele>77.68</ele>
<time>2021-05-16T07:12:52Z</time>
</trkpt>
<trkpt lat="49.1256338" lon="2.6923454">
<ele>76.38</ele>
<time>2021-05-16T07:12:57Z</time>
</trkpt>
<trkpt lat="49.1257626" lon="2.6921000">
<ele>74.99</ele>
<time>2021-05-16T07:13:02Z</time>
</trkpt>
<trkpt lat="49.1259167" lon="2.6919024">
<ele>74.79</ele>
<time>2021-05-16T07:13:07Z</time>
</trkpt>
<trkpt lat="49.1260541" lon="2.6917116">
<ele>74.58</ele>
<time>2021-05-16T07:13:12Z</time>
</trkpt>
<trkpt lat="49.1261896" lon="2.6915306">
<ele>75.79</ele>
<time>2021-05-16T07:13:17Z</time>
</trkpt>
<trkpt lat="49.1263296" lon="2.6913374">
<ele>76.54</ele>
<time>2021-05-16T07:13:22Z</time>
</trkpt>
<trkpt lat="49.1264776" lon="2.6911236">
<ele>76.98</ele>
<time>2021-05-16T07:13:28Z</time>
</trkpt>
<trkpt lat="49.1265735" lon="2.6908695">
<ele>76.51</ele>
<time>2021-05-16T07:13:34Z</time>
</trkpt>
<trkpt lat="49.1267173" lon="2.6906477">
<ele>79.33</ele>
<time>2021-05-16T07:13:40Z</time>
</trkpt>
<trkpt lat="49.1268861" lon="2.6905006">
<ele>81.78</ele>
<time>2021-05-16T07:13:47Z</time>
</trkpt>
<trkpt lat="49.1270551" lon="2.6903890">
<ele>86.53</ele>
<time>2021-05-16T07:13:54Z</time>
</trkpt>
<trkpt lat="49.1272224" lon="2.6902546">
<ele>87.19</ele>
<time>2021-05-16T07:14:00Z</time>
</trkpt>
<trkpt lat="49.1273745" lon="2.6900920">
<ele>86.86</ele>
<time>2021-05-16T07:14:07Z</time>
</trkpt>
<trkpt lat="49.1272075" lon="2.6902194">
<ele>80.60</ele>
<time>2021-05-16T07:19:50Z</time>
</trkpt>
<trkpt lat="49.1270462" lon="2.6903429">
<ele>80.96</ele>
<time>2021-05-16T07:19:54Z</time>
</trkpt>
<trkpt lat="49.1268697" lon="2.6904897">
<ele>81.28</ele>
<time>2021-05-16T07:19:58Z</time>
</trkpt>
<trkpt lat="49.1266628" lon="2.6906507">
<ele>82.85</ele>
<time>2021-05-16T07:20:02Z</time>
</trkpt>
<trkpt lat="49.1264975" lon="2.6909169">
<ele>81.46</ele>
<time>2021-05-16T07:20:06Z</time>
</trkpt>
<trkpt lat="49.1263872" lon="2.6912151">
<ele>80.71</ele>
<time>2021-05-16T07:20:10Z</time>
</trkpt>
<trkpt lat="49.1262296" lon="2.6914402">
<ele>80.69</ele>
<time>2021-05-16T07:20:14Z</time>
</trkpt>
<trkpt lat="49.1260669" lon="2.6916121">
<ele>81.19</ele>
<time>2021-05-16T07:20:18Z</time>
</trkpt>
<trkpt lat="49.1259023" lon="2.6917722">
<ele>82.26</ele>
<time>2021-05-16T07:20:22Z</time>
</trkpt>
<trkpt lat="49.1257642" lon="2.6920392">
<ele>80.07</ele>
<time>2021-05-16T07:20:27Z</time>
</trkpt>
<trkpt lat="49.1256440" lon="2.6922446">
<ele>79.40</ele>
<time>2021-05-16T07:20:31Z</time>
</trkpt>
<trkpt lat="49.1255700" lon="2.6925033">
<ele>80.69</ele>
<time>2021-05-16T07:20:36Z</time>
</trkpt>
<trkpt lat="49.1255716" lon="2.6927876">
<ele>80.39</ele>
<time>2021-05-16T07:20:41Z</time>
</trkpt>
<trkpt lat="49.1256000" lon="2.6931007">
<ele>79.23</ele>
<time>2021-05-16T07:20:48Z</time>
</trkpt>
<trkpt lat="49.1256087" lon="2.6934100">
<ele>78.65</ele>
<time>2021-05-16T07:20:55Z</time>
</trkpt>
<trkpt lat="49.1255347" lon="2.6937028">
<ele>79.37</ele>
<time>2021-05-16T07:21:03Z</time>
</trkpt>
<trkpt lat="49.1254808" lon="2.6939860">
<ele>79.74</ele>
<time>2021-05-16T07:21:10Z</time>
</trkpt>
<trkpt lat="49.1255343" lon="2.6942822">
<ele>80.18</ele>
<time>2021-05-16T07:21:17Z</time>
</trkpt>
<trkpt lat="49.1255197" lon="2.6945825">
<ele>83.80</ele>
<time>2021-05-16T07:21:27Z</time>
</trkpt>
<trkpt lat="49.1255086" lon="2.6948765">
<ele>85.46</ele>
<time>2021-05-16T07:21:36Z</time>
</trkpt>
<trkpt lat="49.1255202" lon="2.6951902">
<ele>85.23</ele>
<time>2021-05-16T07:21:44Z</time>
</trkpt>
<trkpt lat="49.1255913" lon="2.6954506">
<ele>87.15</ele>
<time>2021-05-16T07:21:53Z</time>
</trkpt>
<trkpt lat="49.1257745" lon="2.6954225">
<ele>89.20</ele>
<time>2021-05-16T07:22:02Z</time>
</trkpt>
<trkpt lat="49.1259618" lon="2.6954047">
<ele>92.08</ele>
<time>2021-05-16T07:22:11Z</time>
</trkpt>
<trkpt lat="49.1261259" lon="2.6955426">
<ele>92.81</ele>
<time>2021-05-16T07:22:20Z</time>
</trkpt>
<trkpt lat="49.1263118" lon="2.6953694">
<ele>93.70</ele>
<time>2021-05-16T07:22:35Z</time>
</trkpt>
<trkpt lat="49.1264189" lon="2.6951410">
<ele>91.19</ele>
<time>2021-05-16T07:22:39Z</time>
</trkpt>
<trkpt lat="49.1265012" lon="2.6948567">
<ele>88.00</ele>
<time>2021-05-16T07:22:43Z</time>
</trkpt>
<trkpt lat="49.1266045" lon="2.6946182">
<ele>87.27</ele>
<time>2021-05-16T07:22:46Z</time>
</trkpt>
<trkpt lat="49.1268041" lon="2.6946873">
<ele>79.56</ele>
<time>2021-05-16T07:22:57Z</time>
</trkpt>
<trkpt lat="49.1269157" lon="2.6949076">
<ele>77.02</ele>
<time>2021-05-16T07:23:02Z</time>
</trkpt>
<trkpt lat="49.1270819" lon="2.6951420">
<ele>77.26</ele>
<time>2021-05-16T07:23:06Z</time>
</trkpt>
<trkpt lat="49.1272103" lon="2.6954058">
<ele>76.54</ele>
<time>2021-05-16T07:23:10Z</time>
</trkpt>
<trkpt lat="49.1273476" lon="2.6956455">
<ele>76.59</ele>
<time>2021-05-16T07:23:15Z</time>
</trkpt>
<trkpt lat="49.1274741" lon="2.6958846">
<ele>76.16</ele>
<time>2021-05-16T07:23:21Z</time>
</trkpt>
<trkpt lat="49.1275995" lon="2.6961651">
<ele>76.51</ele>
<time>2021-05-16T07:23:27Z</time>
</trkpt>
<trkpt lat="49.1276943" lon="2.6964614">
<ele>76.17</ele>
<time>2021-05-16T07:23:32Z</time>
</trkpt>
<trkpt lat="49.1277418" lon="2.6967934">
<ele>76.27</ele>
<time>2021-05-16T07:23:37Z</time>
</trkpt>
<trkpt lat="49.1277385" lon="2.6971088">
<ele>77.13</ele>
<time>2021-05-16T07:23:42Z</time>
</trkpt>
<trkpt lat="49.1277541" lon="2.6974160">
<ele>78.12</ele>
<time>2021-05-16T07:23:48Z</time>
</trkpt>
<trkpt lat="49.1277599" lon="2.6977034">
<ele>77.58</ele>
<time>2021-05-16T07:23:54Z</time>
</trkpt>
<trkpt lat="49.1277900" lon="2.6980062">
<ele>77.47</ele>
<time>2021-05-16T07:24:00Z</time>
</trkpt>
<trkpt lat="49.1278094" lon="2.6983330">
<ele>76.67</ele>
<time>2021-05-16T07:24:06Z</time>
</trkpt>
<trkpt lat="49.1278433" lon="2.6986577">
<ele>77.45</ele>
<time>2021-05-16T07:24:12Z</time>
</trkpt>
<trkpt lat="49.1278681" lon="2.6989404">
<ele>77.48</ele>
<time>2021-05-16T07:24:17Z</time>
</trkpt>
<trkpt lat="49.1278979" lon="2.6992142">
<ele>78.24</ele>
<time>2021-05-16T07:24:22Z</time>
</trkpt>
<trkpt lat="49.1279173" lon="2.6995235">
<ele>78.20</ele>
<time>2021-05-16T07:24:28Z</time>
</trkpt>
<trkpt lat="49.1279210" lon="2.6998047">
<ele>78.27</ele>
<time>2021-05-16T07:24:35Z</time>
</trkpt>
<trkpt lat="49.1279050" lon="2.7000789">
<ele>78.09</ele>
<time>2021-05-16T07:24:45Z</time>
</trkpt>
<trkpt lat="49.1277485" lon="2.7002189">
<ele>79.85</ele>
<time>2021-05-16T07:24:54Z</time>
</trkpt>
<trkpt lat="49.1275526" lon="2.7002092">
<ele>82.98</ele>
<time>2021-05-16T07:25:05Z</time>
</trkpt>
<trkpt lat="49.1274903" lon="2.7005074">
<ele>83.57</ele>
<time>2021-05-16T07:25:13Z</time>
</trkpt>
<trkpt lat="49.1274685" lon="2.7008122">
<ele>82.16</ele>
<time>2021-05-16T07:25:20Z</time>
</trkpt>
<trkpt lat="49.1274362" lon="2.7011165">
<ele>81.94</ele>
<time>2021-05-16T07:25:27Z</time>
</trkpt>
<trkpt lat="49.1273897" lon="2.7014113">
<ele>81.16</ele>
<time>2021-05-16T07:25:34Z</time>
</trkpt>
<trkpt lat="49.1274509" lon="2.7016746">
<ele>80.19</ele>
<time>2021-05-16T07:25:40Z</time>
</trkpt>
<trkpt lat="49.1276154" lon="2.7018606">
<ele>80.36</ele>
<time>2021-05-16T07:25:46Z</time>
</trkpt>
<trkpt lat="49.1277481" lon="2.7020487">
<ele>81.01</ele>
<time>2021-05-16T07:25:52Z</time>
</trkpt>
<trkpt lat="49.1278885" lon="2.7022333">
<ele>80.88</ele>
<time>2021-05-16T07:25:59Z</time>
</trkpt>
<trkpt lat="49.1280401" lon="2.7024218">
<ele>79.07</ele>
<time>2021-05-16T07:26:06Z</time>
</trkpt>
<trkpt lat="49.1282020" lon="2.7025987">
<ele>79.37</ele>
<time>2021-05-16T07:26:13Z</time>
</trkpt>
<trkpt lat="49.1284121" lon="2.7026057">
<ele>80.89</ele>
<time>2021-05-16T07:26:20Z</time>
</trkpt>
<trkpt lat="49.1285897" lon="2.7027651">
<ele>80.39</ele>
<time>2021-05-16T07:26:27Z</time>
</trkpt>
<trkpt lat="49.1286132" lon="2.7030388">
<ele>81.19</ele>
<time>2021-05-16T07:26:31Z</time>
</trkpt>
<trkpt lat="49.1286393" lon="2.7033226">
<ele>80.88</ele>
<time>2021-05-16T07:26:35Z</time>
</trkpt>
<trkpt lat="49.1286900" lon="2.7036014">
<ele>79.56</ele>
<time>2021-05-16T07:26:40Z</time>
</trkpt>
<trkpt lat="49.1287328" lon="2.7038864">
<ele>80.81</ele>
<time>2021-05-16T07:26:46Z</time>
</trkpt>
<trkpt lat="49.1288421" lon="2.7041340">
<ele>81.32</ele>
<time>2021-05-16T07:26:55Z</time>
</trkpt>
<trkpt lat="49.1289034" lon="2.7044217">
<ele>79.90</ele>
<time>2021-05-16T07:27:02Z</time>
</trkpt>
<trkpt lat="49.1289359" lon="2.7046976">
<ele>78.75</ele>
<time>2021-05-16T07:27:08Z</time>
</trkpt>
<trkpt lat="49.1290035" lon="2.7049595">
<ele>78.41</ele>
<time>2021-05-16T07:27:14Z</time>
</trkpt>
<trkpt lat="49.1291167" lon="2.7051871">
<ele>78.78</ele>
<time>2021-05-16T07:27:20Z</time>
</trkpt>
<trkpt lat="49.1291990" lon="2.7054577">
<ele>78.62</ele>
<time>2021-05-16T07:27:26Z</time>
</trkpt>
<trkpt lat="49.1292646" lon="2.7057597">
<ele>77.64</ele>
<time>2021-05-16T07:27:33Z</time>
</trkpt>
<trkpt lat="49.1293229" lon="2.7060539">
<ele>74.79</ele>
<time>2021-05-16T07:27:40Z</time>
</trkpt>
<trkpt lat="49.1293088" lon="2.7063405">
<ele>76.10</ele>
<time>2021-05-16T07:27:46Z</time>
</trkpt>
<trkpt lat="49.1292650" lon="2.7066489">
<ele>77.29</ele>
<time>2021-05-16T07:27:51Z</time>
</trkpt>
<trkpt lat="49.1292168" lon="2.7069421">
<ele>78.12</ele>
<time>2021-05-16T07:27:57Z</time>
</trkpt>
<trkpt lat="49.1291483" lon="2.7072252">
<ele>77.38</ele>
<time>2021-05-16T07:28:04Z</time>
</trkpt>
<trkpt lat="49.1291040" lon="2.7074992">
<ele>79.40</ele>
<time>2021-05-16T07:28:10Z</time>
</trkpt>
<trkpt lat="49.1290737" lon="2.7077813">
<ele>79.12</ele>
<time>2021-05-16T07:28:16Z</time>
</trkpt>
<trkpt lat="49.1290455" lon="2.7080630">
<ele>80.20</ele>
<time>2021-05-16T07:28:22Z</time>
</trkpt>
<trkpt lat="49.1290160" lon="2.7083577">
<ele>77.43</ele>
<time>2021-05-16T07:28:28Z</time>
</trkpt>
<trkpt lat="49.1289461" lon="2.7086440">
<ele>77.29</ele>
<time>2021-05-16T07:28:36Z</time>
</trkpt>
<trkpt lat="49.1289563" lon="2.7089264">
<ele>79.09</ele>
<time>2021-05-16T07:28:40Z</time>
</trkpt>
<trkpt lat="49.1289934" lon="2.7092553">
<ele>80.98</ele>
<time>2021-05-16T07:28:45Z</time>
</trkpt>
<trkpt lat="49.1290342" lon="2.7095315">
<ele>79.70</ele>
<time>2021-05-16T07:28:49Z</time>
</trkpt>
<trkpt lat="49.1290803" lon="2.7098392">
<ele>81.15</ele>
<time>2021-05-16T07:28:53Z</time>
</trkpt>
<trkpt lat="49.1291261" lon="2.7101524">
<ele>82.70</ele>
<time>2021-05-16T07:28:57Z</time>
</trkpt>
<trkpt lat="49.1291799" lon="2.7104370">
<ele>83.03</ele>
<time>2021-05-16T07:29:01Z</time>
</trkpt>
<trkpt lat="49.1292233" lon="2.7107838">
<ele>82.71</ele>
<time>2021-05-16T07:29:07Z</time>
</trkpt>
<trkpt lat="49.1292780" lon="2.7110676">
<ele>81.70</ele>
<time>2021-05-16T07:29:10Z</time>
</trkpt>
<trkpt lat="49.1293453" lon="2.7113995">
<ele>79.34</ele>
<time>2021-05-16T07:29:14Z</time>
</trkpt>
<trkpt lat="49.1294094" lon="2.7117306">
<ele>79.25</ele>
<time>2021-05-16T07:29:18Z</time>
</trkpt>
<trkpt lat="49.1294327" lon="2.7120571">
<ele>82.10</ele>
<time>2021-05-16T07:29:22Z</time>
</trkpt>
<trkpt lat="49.1294835" lon="2.7123411">
<ele>82.60</ele>
<time>2021-05-16T07:29:26Z</time>
</trkpt>
<trkpt lat="49.1296632" lon="2.7123059">
<ele>87.72</ele>
<time>2021-05-16T07:29:42Z</time>
</trkpt>
<trkpt lat="49.1297162" lon="2.7120107">
<ele>90.90</ele>
<time>2021-05-16T07:29:52Z</time>
</trkpt>
<trkpt lat="49.1297716" lon="2.7117454">
<ele>93.33</ele>
<time>2021-05-16T07:29:57Z</time>
</trkpt>
<trkpt lat="49.1298748" lon="2.7115119">
<ele>94.15</ele>
<time>2021-05-16T07:30:02Z</time>
</trkpt>
<trkpt lat="49.1300178" lon="2.7112234">
<ele>96.70</ele>
<time>2021-05-16T07:30:08Z</time>
</trkpt>
<trkpt lat="49.1300496" lon="2.7109330">
<ele>99.62</ele>
<time>2021-05-16T07:30:15Z</time>
</trkpt>
<trkpt lat="49.1301572" lon="2.7106859">
<ele>103.72</ele>
<time>2021-05-16T07:30:22Z</time>
</trkpt>
<trkpt lat="49.1302772" lon="2.7104491">
<ele>108.86</ele>
<time>2021-05-16T07:30:32Z</time>
</trkpt>
<trkpt lat="49.1303910" lon="2.7102233">
<ele>115.01</ele>
<time>2021-05-16T07:30:41Z</time>
</trkpt>
<trkpt lat="49.1304858" lon="2.7099360">
<ele>113.06</ele>
<time>2021-05-16T07:30:51Z</time>
</trkpt>
<trkpt lat="49.1306146" lon="2.7097156">
<ele>113.71</ele>
<time>2021-05-16T07:30:57Z</time>
</trkpt>
<trkpt lat="49.1306885" lon="2.7094241">
<ele>115.39</ele>
<time>2021-05-16T07:31:03Z</time>
</trkpt>
<trkpt lat="49.1308204" lon="2.7092163">
<ele>119.61</ele>
<time>2021-05-16T07:31:10Z</time>
</trkpt>
<trkpt lat="49.1309458" lon="2.7090059">
<ele>115.51</ele>
<time>2021-05-16T07:31:15Z</time>
</trkpt>
<trkpt lat="49.1310928" lon="2.7088103">
<ele>117.62</ele>
<time>2021-05-16T07:31:22Z</time>
</trkpt>
<trkpt lat="49.1312424" lon="2.7086077">
<ele>118.48</ele>
<time>2021-05-16T07:31:27Z</time>
</trkpt>
<trkpt lat="49.1313673" lon="2.7083507">
<ele>115.98</ele>
<time>2021-05-16T07:31:35Z</time>
</trkpt>
<trkpt lat="49.1314876" lon="2.7081235">
<ele>114.72</ele>
<time>2021-05-16T07:31:40Z</time>
</trkpt>
<trkpt lat="49.1315843" lon="2.7078376">
<ele>112.40</ele>
<time>2021-05-16T07:31:46Z</time>
</trkpt>
<trkpt lat="49.1316988" lon="2.7075779">
<ele>113.20</ele>
<time>2021-05-16T07:31:52Z</time>
</trkpt>
<trkpt lat="49.1317923" lon="2.7073409">
<ele>113.28</ele>
<time>2021-05-16T07:31:57Z</time>
</trkpt>
<trkpt lat="49.1319429" lon="2.7071191">
<ele>115.95</ele>
<time>2021-05-16T07:32:03Z</time>
</trkpt>
<trkpt lat="49.1320864" lon="2.7069117">
<ele>115.60</ele>
<time>2021-05-16T07:32:08Z</time>
</trkpt>
<trkpt lat="49.1321860" lon="2.7066557">
<ele>114.89</ele>
<time>2021-05-16T07:32:15Z</time>
</trkpt>
<trkpt lat="49.1323594" lon="2.7065165">
<ele>118.33</ele>
<time>2021-05-16T07:32:24Z</time>
</trkpt>
<trkpt lat="49.1324757" lon="2.7062902">
<ele>121.95</ele>
<time>2021-05-16T07:32:32Z</time>
</trkpt>
<trkpt lat="49.1326396" lon="2.7061423">
<ele>126.14</ele>
<time>2021-05-16T07:32:41Z</time>
</trkpt>
<trkpt lat="49.1327946" lon="2.7059808">
<ele>126.39</ele>
<time>2021-05-16T07:32:56Z</time>
</trkpt>
<trkpt lat="49.1329620" lon="2.7057907">
<ele>128.20</ele>
<time>2021-05-16T07:33:05Z</time>
</trkpt>
<trkpt lat="49.1331029" lon="2.7056050">
<ele>123.74</ele>
<time>2021-05-16T07:33:13Z</time>
</trkpt>
<trkpt lat="49.1331710" lon="2.7058658">
<ele>117.84</ele>
<time>2021-05-16T07:34:54Z</time>
</trkpt>
<trkpt lat="49.1332407" lon="2.7061360">
<ele>117.08</ele>
<time>2021-05-16T07:35:00Z</time>
</trkpt>
<trkpt lat="49.1332858" lon="2.7064124">
<ele>116.23</ele>
<time>2021-05-16T07:35:06Z</time>
</trkpt>
<trkpt lat="49.1333224" lon="2.7066949">
<ele>115.92</ele>
<time>2021-05-16T07:35:13Z</time>
</trkpt>
<trkpt lat="49.1333788" lon="2.7069606">
<ele>113.04</ele>
<time>2021-05-16T07:35:20Z</time>
</trkpt>
<trkpt lat="49.1334230" lon="2.7072408">
<ele>113.63</ele>
<time>2021-05-16T07:35:26Z</time>
</trkpt>
<trkpt lat="49.1334795" lon="2.7075672">
<ele>114.11</ele>
<time>2021-05-16T07:35:32Z</time>
</trkpt>
<trkpt lat="49.1335338" lon="2.7078881">
<ele>111.95</ele>
<time>2021-05-16T07:35:38Z</time>
</trkpt>
<trkpt lat="49.1335803" lon="2.7081757">
<ele>112.65</ele>
<time>2021-05-16T07:35:43Z</time>
</trkpt>
<trkpt lat="49.1335781" lon="2.7084557">
<ele>111.77</ele>
<time>2021-05-16T07:35:48Z</time>
</trkpt>
<trkpt lat="49.1336445" lon="2.7087610">
<ele>109.86</ele>
<time>2021-05-16T07:35:54Z</time>
</trkpt>
<trkpt lat="49.1337167" lon="2.7090139">
<ele>110.42</ele>
<time>2021-05-16T07:36:00Z</time>
</trkpt>
<trkpt lat="49.1337465" lon="2.7093060">
<ele>109.69</ele>
<time>2021-05-16T07:36:04Z</time>
</trkpt>
<trkpt lat="49.1337751" lon="2.7095981">
<ele>107.98</ele>
<time>2021-05-16T07:36:09Z</time>
</trkpt>
<trkpt lat="49.1338150" lon="2.7098894">
<ele>108.06</ele>
<time>2021-05-16T07:36:14Z</time>
</trkpt>
<trkpt lat="49.1338630" lon="2.7101670">
<ele>109.03</ele>
<time>2021-05-16T07:36:18Z</time>
</trkpt>
<trkpt lat="49.1339104" lon="2.7104697">
<ele>107.34</ele>
<time>2021-05-16T07:36:24Z</time>
</trkpt>
<trkpt lat="49.1340187" lon="2.7107253">
<ele>107.49</ele>
<time>2021-05-16T07:36:30Z</time>
</trkpt>
<trkpt lat="49.1341005" lon="2.7109854">
<ele>107.39</ele>
<time>2021-05-16T07:36:35Z</time>
</trkpt>
<trkpt lat="49.1341415" lon="2.7112699">
<ele>105.51</ele>
<time>2021-05-16T07:36:39Z</time>
</trkpt>
<trkpt lat="49.1342010" lon="2.7115874">
<ele>105.25</ele>
<time>2021-05-16T07:36:43Z</time>
</trkpt>
<trkpt lat="49.1342343" lon="2.7118599">
<ele>108.00</ele>
<time>2021-05-16T07:36:49Z</time>
</trkpt>
<trkpt lat="49.1342622" lon="2.7121459">
<ele>110.61</ele>
<time>2021-05-16T07:36:54Z</time>
</trkpt>
<trkpt lat="49.1343227" lon="2.7124501">
<ele>111.97</ele>
<time>2021-05-16T07:36:59Z</time>
</trkpt>
<trkpt lat="49.1343713" lon="2.7127600">
<ele>115.69</ele>
<time>2021-05-16T07:37:05Z</time>
</trkpt>
<trkpt lat="49.1344555" lon="2.7130465">
<ele>114.12</ele>
<time>2021-05-16T07:37:11Z</time>
</trkpt>
<trkpt lat="49.1344912" lon="2.7133390">
<ele>116.12</ele>
<time>2021-05-16T07:37:17Z</time>
</trkpt>
<trkpt lat="49.1345609" lon="2.7136362">
<ele>117.84</ele>
<time>2021-05-16T07:37:24Z</time>
</trkpt>
<trkpt lat="49.1345942" lon="2.7139178">
<ele>121.02</ele>
<time>2021-05-16T07:37:29Z</time>
</trkpt>
<trkpt lat="49.1346399" lon="2.7142030">
<ele>122.63</ele>
<time>2021-05-16T07:37:35Z</time>
</trkpt>
<trkpt lat="49.1346987" lon="2.7145124">
<ele>121.13</ele>
<time>2021-05-16T07:37:41Z</time>
</trkpt>
<trkpt lat="49.1347571" lon="2.7147739">
<ele>119.02</ele>
<time>2021-05-16T07:37:46Z</time>
</trkpt>
<trkpt lat="49.1348044" lon="2.7150581">
<ele>117.54</ele>
<time>2021-05-16T07:37:51Z</time>
</trkpt>
<trkpt lat="49.1348557" lon="2.7153484">
<ele>117.72</ele>
<time>2021-05-16T07:37:56Z</time>
</trkpt>
<trkpt lat="49.1349037" lon="2.7156686">
<ele>117.78</ele>
<time>2021-05-16T07:38:01Z</time>
</trkpt>
<trkpt lat="49.1349610" lon="2.7159607">
<ele>120.79</ele>
<time>2021-05-16T07:38:08Z</time>
</trkpt>
<trkpt lat="49.1350146" lon="2.7162356">
<ele>121.08</ele>
<time>2021-05-16T07:38:13Z</time>
</trkpt>
<trkpt lat="49.1350621" lon="2.7165203">
<ele>119.28</ele>
<time>2021-05-16T07:38:18Z</time>
</trkpt>
<trkpt lat="49.1351263" lon="2.7168380">
<ele>120.48</ele>
<time>2021-05-16T07:38:23Z</time>
</trkpt>
<trkpt lat="49.1351729" lon="2.7171325">
<ele>120.50</ele>
<time>2021-05-16T07:38:28Z</time>
</trkpt>
<trkpt lat="49.1352200" lon="2.7174375">
<ele>117.41</ele>
<time>2021-05-16T07:38:33Z</time>
</trkpt>
<trkpt lat="49.1352872" lon="2.7177557">
<ele>116.14</ele>
<time>2021-05-16T07:38:38Z</time>
</trkpt>
<trkpt lat="49.1353857" lon="2.7180595">
<ele>117.90</ele>
<time>2021-05-16T07:38:43Z</time>
</trkpt>
<trkpt lat="49.1355263" lon="2.7182550">
<ele>117.45</ele>
<time>2021-05-16T07:38:49Z</time>
</trkpt>
<trkpt lat="49.1357008" lon="2.7184211">
<ele>116.51</ele>
<time>2021-05-16T07:38:56Z</time>
</trkpt>
<trkpt lat="49.1358516" lon="2.7185940">
<ele>115.95</ele>
<time>2021-05-16T07:39:02Z</time>
</trkpt>
<trkpt lat="49.1360280" lon="2.7187841">
<ele>117.07</ele>
<time>2021-05-16T07:39:16Z</time>
</trkpt>
<trkpt lat="49.1362238" lon="2.7189453">
<ele>115.13</ele>
<time>2021-05-16T07:39:19Z</time>
</trkpt>
<trkpt lat="49.1363994" lon="2.7191168">
<ele>113.32</ele>
<time>2021-05-16T07:39:27Z</time>
</trkpt>
<trkpt lat="49.1365771" lon="2.7193196">
<ele>113.41</ele>
<time>2021-05-16T07:39:32Z</time>
</trkpt>
<trkpt lat="49.1367697" lon="2.7194964">
<ele>114.79</ele>
<time>2021-05-16T07:39:38Z</time>
</trkpt>
<trkpt lat="49.1369245" lon="2.7197143">
<ele>116.25</ele>
<time>2021-05-16T07:39:42Z</time>
</trkpt>
<trkpt lat="49.1370864" lon="2.7199224">
<ele>119.01</ele>
<time>2021-05-16T07:39:48Z</time>
</trkpt>
<trkpt lat="49.1372465" lon="2.7200829">
<ele>119.79</ele>
<time>2021-05-16T07:39:50Z</time>
</trkpt>
<trkpt lat="49.1373824" lon="2.7202764">
<ele>118.12</ele>
<time>2021-05-16T07:39:55Z</time>
</trkpt>
<trkpt lat="49.1375409" lon="2.7204528">
<ele>118.38</ele>
<time>2021-05-16T07:40:00Z</time>
</trkpt>
<trkpt lat="49.1377286" lon="2.7206335">
<ele>118.62</ele>
<time>2021-05-16T07:40:05Z</time>
</trkpt>
<trkpt lat="49.1379662" lon="2.7208481">
<ele>117.59</ele>
<time>2021-05-16T07:40:11Z</time>
</trkpt>
<trkpt lat="49.1381284" lon="2.7210641">
<ele>119.19</ele>
<time>2021-05-16T07:40:15Z</time>
</trkpt>
<trkpt lat="49.1383082" lon="2.7212698">
<ele>118.77</ele>
<time>2021-05-16T07:40:19Z</time>
</trkpt>
<trkpt lat="49.1384931" lon="2.7214585">
<ele>119.57</ele>
<time>2021-05-16T07:40:23Z</time>
</trkpt>
<trkpt lat="49.1386629" lon="2.7216144">
<ele>119.01</ele>
<time>2021-05-16T07:40:27Z</time>
</trkpt>
<trkpt lat="49.1388303" lon="2.7218215">
<ele>119.59</ele>
<time>2021-05-16T07:40:31Z</time>
</trkpt>
<trkpt lat="49.1390073" lon="2.7219290">
<ele>121.23</ele>
<time>2021-05-16T07:40:37Z</time>
</trkpt>
<trkpt lat="49.1390566" lon="2.7216638">
<ele>124.57</ele>
<time>2021-05-16T07:40:46Z</time>
</trkpt>
<trkpt lat="49.1390665" lon="2.7213764">
<ele>125.48</ele>
<time>2021-05-16T07:40:53Z</time>
</trkpt>
<trkpt lat="49.1391585" lon="2.7211141">
<ele>122.97</ele>
<time>2021-05-16T07:40:59Z</time>
</trkpt>
<trkpt lat="49.1392107" lon="2.7208210">
<ele>124.34</ele>
<time>2021-05-16T07:41:04Z</time>
</trkpt>
<trkpt lat="49.1392675" lon="2.7205097">
<ele>122.19</ele>
<time>2021-05-16T07:41:08Z</time>
</trkpt>
<trkpt lat="49.1394233" lon="2.7201518">
<ele>121.24</ele>
<time>2021-05-16T07:41:13Z</time>
</trkpt>
<trkpt lat="49.1394715" lon="2.7198566">
<ele>122.23</ele>
<time>2021-05-16T07:41:17Z</time>
</trkpt>
<trkpt lat="49.1395281" lon="2.7195498">
<ele>120.89</ele>
<time>2021-05-16T07:41:21Z</time>
</trkpt>
<trkpt lat="49.1396280" lon="2.7192985">
<ele>122.07</ele>
<time>2021-05-16T07:41:25Z</time>
</trkpt>
<trkpt lat="49.1397471" lon="2.7190781">
<ele>121.86</ele>
<time>2021-05-16T07:41:29Z</time>
</trkpt>
<trkpt lat="49.1398547" lon="2.7188095">
<ele>121.25</ele>
<time>2021-05-16T07:41:35Z</time>
</trkpt>
<trkpt lat="49.1399873" lon="2.7185574">
<ele>121.05</ele>
<time>2021-05-16T07:41:40Z</time>
</trkpt>
<trkpt lat="49.1400966" lon="2.7182887">
<ele>122.51</ele>
<time>2021-05-16T07:41:45Z</time>
</trkpt>
<trkpt lat="49.1402617" lon="2.7181187">
<ele>122.90</ele>
<time>2021-05-16T07:41:49Z</time>
</trkpt>
<trkpt lat="49.1404363" lon="2.7179229">
<ele>123.52</ele>
<time>2021-05-16T07:41:57Z</time>
</trkpt>
<trkpt lat="49.1405683" lon="2.7177018">
<ele>122.75</ele>
<time>2021-05-16T07:42:00Z</time>
</trkpt>
<trkpt lat="49.1407228" lon="2.7174778">
<ele>124.16</ele>
<time>2021-05-16T07:42:05Z</time>
</trkpt>
<trkpt lat="49.1408751" lon="2.7172794">
<ele>124.28</ele>
<time>2021-05-16T07:42:09Z</time>
</trkpt>
<trkpt lat="49.1410112" lon="2.7170631">
<ele>123.59</ele>
<time>2021-05-16T07:42:13Z</time>
</trkpt>
<trkpt lat="49.1411480" lon="2.7167943">
<ele>124.70</ele>
<time>2021-05-16T07:42:19Z</time>
</trkpt>
<trkpt lat="49.1412060" lon="2.7165264">
<ele>125.09</ele>
<time>2021-05-16T07:42:24Z</time>
</trkpt>
<trkpt lat="49.1412537" lon="2.7162066">
<ele>126.58</ele>
<time>2021-05-16T07:42:30Z</time>
</trkpt>
<trkpt lat="49.1413599" lon="2.7159267">
<ele>125.78</ele>
<time>2021-05-16T07:42:34Z</time>
</trkpt>
<trkpt lat="49.1414246" lon="2.7156621">
<ele>120.70</ele>
<time>2021-05-16T07:42:39Z</time>
</trkpt>
<trkpt lat="49.1414916" lon="2.7153859">
<ele>118.13</ele>
<time>2021-05-16T07:42:43Z</time>
</trkpt>
<trkpt lat="49.1415450" lon="2.7151220">
<ele>119.16</ele>
<time>2021-05-16T07:42:48Z</time>
</trkpt>
<trkpt lat="49.1416281" lon="2.7148276">
<ele>120.10</ele>
<time>2021-05-16T07:42:54Z</time>
</trkpt>
<trkpt lat="49.1415969" lon="2.7145336">
<ele>117.90</ele>
<time>2021-05-16T07:43:01Z</time>
</trkpt>
<trkpt lat="49.1414389" lon="2.7143248">
<ele>119.80</ele>
<time>2021-05-16T07:43:08Z</time>
</trkpt>
<trkpt lat="49.1412348" lon="2.7141352">
<ele>119.13</ele>
<time>2021-05-16T07:43:14Z</time>
</trkpt>
<trkpt lat="49.1410454" lon="2.7139433">
<ele>120.06</ele>
<time>2021-05-16T07:43:19Z</time>
</trkpt>
<trkpt lat="49.1408806" lon="2.7137538">
<ele>121.60</ele>
<time>2021-05-16T07:43:23Z</time>
</trkpt>
<trkpt lat="49.1406854" lon="2.7135761">
<ele>122.90</ele>
<time>2021-05-16T07:43:28Z</time>
</trkpt>
<trkpt lat="49.1405144" lon="2.7133662">
<ele>123.82</ele>
<time>2021-05-16T07:43:34Z</time>
</trkpt>
<trkpt lat="49.1403464" lon="2.7131944">
<ele>124.11</ele>
<time>2021-05-16T07:43:39Z</time>
</trkpt>
<trkpt lat="49.1401872" lon="2.7130332">
<ele>123.28</ele>
<time>2021-05-16T07:43:43Z</time>
</trkpt>
<trkpt lat="49.1400101" lon="2.7128542">
<ele>121.92</ele>
<time>2021-05-16T07:43:47Z</time>
</trkpt>
<trkpt lat="49.1398495" lon="2.7127054">
<ele>120.63</ele>
<time>2021-05-16T07:43:52Z</time>
</trkpt>
<trkpt lat="49.1396898" lon="2.7125432">
<ele>123.30</ele>
<time>2021-05-16T07:43:56Z</time>
</trkpt>
<trkpt lat="49.1395550" lon="2.7123546">
<ele>124.39</ele>
<time>2021-05-16T07:44:00Z</time>
</trkpt>
<trkpt lat="49.1393801" lon="2.7121890">
<ele>123.80</ele>
<time>2021-05-16T07:44:04Z</time>
</trkpt>
<trkpt lat="49.1392076" lon="2.7120096">
<ele>122.72</ele>
<time>2021-05-16T07:44:08Z</time>
</trkpt>
<trkpt lat="49.1390432" lon="2.7118618">
<ele>121.48</ele>
<time>2021-05-16T07:44:12Z</time>
</trkpt>
<trkpt lat="49.1388673" lon="2.7116825">
<ele>120.61</ele>
<time>2021-05-16T07:44:16Z</time>
</trkpt>
<trkpt lat="49.1386949" lon="2.7114781">
<ele>119.24</ele>
<time>2021-05-16T07:44:22Z</time>
</trkpt>
<trkpt lat="49.1385342" lon="2.7112673">
<ele>119.88</ele>
<time>2021-05-16T07:44:26Z</time>
</trkpt>
<trkpt lat="49.1383642" lon="2.7110839">
<ele>118.97</ele>
<time>2021-05-16T07:44:31Z</time>
</trkpt>
<trkpt lat="49.1381860" lon="2.7108381">
<ele>119.26</ele>
<time>2021-05-16T07:44:37Z</time>
</trkpt>
<trkpt lat="49.1380307" lon="2.7106673">
<ele>119.77</ele>
<time>2021-05-16T07:44:42Z</time>
</trkpt>
<trkpt lat="49.1379445" lon="2.7103995">
<ele>122.55</ele>
<time>2021-05-16T07:44:48Z</time>
</trkpt>
<trkpt lat="49.1380102" lon="2.7101266">
<ele>125.13</ele>
<time>2021-05-16T07:44:54Z</time>
</trkpt>
<trkpt lat="49.1381127" lon="2.7098412">
<ele>123.59</ele>
<time>2021-05-16T07:45:00Z</time>
</trkpt>
<trkpt lat="49.1382132" lon="2.7095646">
<ele>122.66</ele>
<time>2021-05-16T07:45:04Z</time>
</trkpt>
<trkpt lat="49.1383337" lon="2.7093426">
<ele>122.82</ele>
<time>2021-05-16T07:45:07Z</time>
</trkpt>
<trkpt lat="49.1384545" lon="2.7090298">
<ele>121.33</ele>
<time>2021-05-16T07:45:11Z</time>
</trkpt>
<trkpt lat="49.1385250" lon="2.7087457">
<ele>122.11</ele>
<time>2021-05-16T07:45:15Z</time>
</trkpt>
<trkpt lat="49.1385841" lon="2.7084531">
<ele>122.12</ele>
<time>2021-05-16T07:45:20Z</time>
</trkpt>
<trkpt lat="49.1386881" lon="2.7081571">
<ele>123.09</ele>
<time>2021-05-16T07:45:23Z</time>
</trkpt>
<trkpt lat="49.1387709" lon="2.7078550">
<ele>124.13</ele>
<time>2021-05-16T07:45:27Z</time>
</trkpt>
<trkpt lat="49.1388398" lon="2.7075787">
<ele>126.03</ele>
<time>2021-05-16T07:45:32Z</time>
</trkpt>
<trkpt lat="49.1389462" lon="2.7072764">
<ele>126.99</ele>
<time>2021-05-16T07:45:35Z</time>
</trkpt>
<trkpt lat="49.1390779" lon="2.7070329">
<ele>129.90</ele>
<time>2021-05-16T07:45:39Z</time>
</trkpt>
<trkpt lat="49.1391551" lon="2.7067265">
<ele>129.10</ele>
<time>2021-05-16T07:45:46Z</time>
</trkpt>
<trkpt lat="49.1392461" lon="2.7063895">
<ele>126.99</ele>
<time>2021-05-16T07:45:50Z</time>
</trkpt>
<trkpt lat="49.1393869" lon="2.7061558">
<ele>124.97</ele>
<time>2021-05-16T07:45:52Z</time>
</trkpt>
<trkpt lat="49.1395051" lon="2.7059061">
<ele>121.90</ele>
<time>2021-05-16T07:45:56Z</time>
</trkpt>
<trkpt lat="49.1395975" lon="2.7055697">
<ele>122.83</ele>
<time>2021-05-16T07:46:03Z</time>
</trkpt>
<trkpt lat="49.1396300" lon="2.7052870">
<ele>121.59</ele>
<time>2021-05-16T07:46:08Z</time>
</trkpt>
<trkpt lat="49.1396786" lon="2.7050188">
<ele>119.24</ele>
<time>2021-05-16T07:46:14Z</time>
</trkpt>
<trkpt lat="49.1396197" lon="2.7047364">
<ele>114.78</ele>
<time>2021-05-16T07:46:21Z</time>
</trkpt>
<trkpt lat="49.1394992" lon="2.7044668">
<ele>115.49</ele>
<time>2021-05-16T07:46:27Z</time>
</trkpt>
<trkpt lat="49.1393204" lon="2.7043169">
<ele>115.05</ele>
<time>2021-05-16T07:46:32Z</time>
</trkpt>
<trkpt lat="49.1390960" lon="2.7042358">
<ele>114.17</ele>
<time>2021-05-16T07:46:37Z</time>
</trkpt>
<trkpt lat="49.1388935" lon="2.7041131">
<ele>114.11</ele>
<time>2021-05-16T07:46:41Z</time>
</trkpt>
<trkpt lat="49.1387143" lon="2.7039673">
<ele>113.97</ele>
<time>2021-05-16T07:46:45Z</time>
</trkpt>
<trkpt lat="49.1385358" lon="2.7038441">
<ele>112.31</ele>
<time>2021-05-16T07:46:50Z</time>
</trkpt>
<trkpt lat="49.1383394" lon="2.7038142">
<ele>114.75</ele>
<time>2021-05-16T07:46:57Z</time>
</trkpt>
<trkpt lat="49.1381604" lon="2.7038757">
<ele>116.90</ele>
<time>2021-05-16T07:47:03Z</time>
</trkpt>
<trkpt lat="49.1379880" lon="2.7039542">
<ele>117.01</ele>
<time>2021-05-16T07:47:09Z</time>
</trkpt>
<trkpt lat="49.1377943" lon="2.7040231">
<ele>119.03</ele>
<time>2021-05-16T07:47:15Z</time>
</trkpt>
<trkpt lat="49.1376085" lon="2.7040364">
<ele>120.24</ele>
<time>2021-05-16T07:47:24Z</time>
</trkpt>
<trkpt lat="49.1374752" lon="2.7038264">
<ele>113.19</ele>
<time>2021-05-16T07:47:33Z</time>
</trkpt>
<trkpt lat="49.1373044" lon="2.7036581">
<ele>115.06</ele>
<time>2021-05-16T07:47:40Z</time>
</trkpt>
<trkpt lat="49.1372683" lon="2.7033421">
<ele>117.92</ele>
<time>2021-05-16T07:48:00Z</time>
</trkpt>
<trkpt lat="49.1372067" lon="2.7030659">
<ele>113.53</ele>
<time>2021-05-16T07:48:05Z</time>
</trkpt>
<trkpt lat="49.1371678" lon="2.7027717">
<ele>111.38</ele>
<time>2021-05-16T07:48:10Z</time>
</trkpt>
<trkpt lat="49.1370621" lon="2.7024284">
<ele>109.32</ele>
<time>2021-05-16T07:48:13Z</time>
</trkpt>
<trkpt lat="49.1370027" lon="2.7021023">
<ele>105.35</ele>
<time>2021-05-16T07:48:17Z</time>
</trkpt>
<trkpt lat="49.1369680" lon="2.7017603">
<ele>104.68</ele>
<time>2021-05-16T07:48:21Z</time>
</trkpt>
<trkpt lat="49.1369169" lon="2.7014756">
<ele>101.55</ele>
<time>2021-05-16T07:48:25Z</time>
</trkpt>
<trkpt lat="49.1368815" lon="2.7011551">
<ele>100.25</ele>
<time>2021-05-16T07:48:29Z</time>
</trkpt>
<trkpt lat="49.1370588" lon="2.7012590">
<ele>92.83</ele>
<time>2021-05-16T07:48:35Z</time>
</trkpt>
<trkpt lat="49.1372204" lon="2.7014497">
<ele>91.03</ele>
<time>2021-05-16T07:48:39Z</time>
</trkpt>
<trkpt lat="49.1374297" lon="2.7015620">
<ele>90.33</ele>
<time>2021-05-16T07:48:44Z</time>
</trkpt>
<trkpt lat="49.1376225" lon="2.7016572">
<ele>90.54</ele>
<time>2021-05-16T07:48:50Z</time>
</trkpt>
<trkpt lat="49.1378255" lon="2.7016609">
<ele>94.39</ele>
<time>2021-05-16T07:48:56Z</time>
</trkpt>
<trkpt lat="49.1380237" lon="2.7017111">
<ele>96.92</ele>
<time>2021-05-16T07:49:01Z</time>
</trkpt>
<trkpt lat="49.1382610" lon="2.7018126">
<ele>93.53</ele>
<time>2021-05-16T07:49:06Z</time>
</trkpt>
<trkpt lat="49.1384567" lon="2.7018780">
<ele>86.82</ele>
<time>2021-05-16T07:49:10Z</time>
</trkpt>
<trkpt lat="49.1386485" lon="2.7019367">
<ele>85.88</ele>
<time>2021-05-16T07:49:14Z</time>
</trkpt>
<trkpt lat="49.1388611" lon="2.7019398">
<ele>86.52</ele>
<time>2021-05-16T07:49:19Z</time>
</trkpt>
<trkpt lat="49.1390489" lon="2.7019014">
<ele>89.94</ele>
<time>2021-05-16T07:49:24Z</time>
</trkpt>
<trkpt lat="49.1392595" lon="2.7018867">
<ele>89.27</ele>
<time>2021-05-16T07:49:30Z</time>
</trkpt>
<trkpt lat="49.1394616" lon="2.7019393">
<ele>89.88</ele>
<time>2021-05-16T07:49:37Z</time>
</trkpt>
<trkpt lat="49.1396316" lon="2.7020383">
<ele>86.91</ele>
<time>2021-05-16T07:49:42Z</time>
</trkpt>
<trkpt lat="49.1397889" lon="2.7022188">
<ele>86.06</ele>
<time>2021-05-16T07:49:46Z</time>
</trkpt>
<trkpt lat="49.1399183" lon="2.7024146">
<ele>85.55</ele>
<time>2021-05-16T07:49:50Z</time>
</trkpt>
<trkpt lat="49.1400844" lon="2.7026509">
<ele>86.31</ele>
<time>2021-05-16T07:49:55Z</time>
</trkpt>
<trkpt lat="49.1402397" lon="2.7028673">
<ele>84.37</ele>
<time>2021-05-16T07:50:01Z</time>
</trkpt>
<trkpt lat="49.1404186" lon="2.7030055">
<ele>85.27</ele>
<time>2021-05-16T07:50:07Z</time>
</trkpt>
<trkpt lat="49.1403854" lon="2.7033041">
<ele>86.04</ele>
<time>2021-05-16T07:50:19Z</time>
</trkpt>
<trkpt lat="49.1402702" lon="2.7035481">
<ele>88.78</ele>
<time>2021-05-16T07:50:26Z</time>
</trkpt>
<trkpt lat="49.1401943" lon="2.7038193">
<ele>89.82</ele>
<time>2021-05-16T07:50:33Z</time>
</trkpt>
<trkpt lat="49.1400789" lon="2.7040652">
<ele>92.76</ele>
<time>2021-05-16T07:50:41Z</time>
</trkpt>
<trkpt lat="49.1399916" lon="2.7043280">
<ele>92.17</ele>
<time>2021-05-16T07:50:52Z</time>
</trkpt>
<trkpt lat="49.1400680" lon="2.7045774">
<ele>93.95</ele>
<time>2021-05-16T07:51:07Z</time>
</trkpt>
<trkpt lat="49.1399106" lon="2.7047312">
<ele>102.15</ele>
<time>2021-05-16T07:51:44Z</time>
</trkpt>
<trkpt lat="49.1397779" lon="2.7049396">
<ele>100.20</ele>
<time>2021-05-16T07:52:06Z</time>
</trkpt>
<trkpt lat="49.1396737" lon="2.7051973">
<ele>103.88</ele>
<time>2021-05-16T07:52:18Z</time>
</trkpt>
<trkpt lat="49.1398007" lon="2.7053925">
<ele>113.23</ele>
<time>2021-05-16T08:01:33Z</time>
</trkpt>
<trkpt lat="49.1399358" lon="2.7055802">
<ele>115.71</ele>
<time>2021-05-16T08:01:43Z</time>
</trkpt>
<trkpt lat="49.1401222" lon="2.7055175">
<ele>115.87</ele>
<time>2021-05-16T08:01:51Z</time>
</trkpt>
<trkpt lat="49.1403091" lon="2.7055334">
<ele>114.38</ele>
<time>2021-05-16T08:02:04Z</time>
</trkpt>
<trkpt lat="49.1404698" lon="2.7056697">
<ele>111.52</ele>
<time>2021-05-16T08:02:16Z</time>
</trkpt>
<trkpt lat="49.1405398" lon="2.7059328">
<ele>111.58</ele>
<time>2021-05-16T08:02:26Z</time>
</trkpt>
<trkpt lat="49.1407262" lon="2.7060143">
<ele>111.29</ele>
<time>2021-05-16T08:03:02Z</time>
</trkpt>
<trkpt lat="49.1408855" lon="2.7058630">
<ele>111.17</ele>
<time>2021-05-16T08:03:10Z</time>
</trkpt>
<trkpt lat="49.1407872" lon="2.7056252">
<ele>106.88</ele>
<time>2021-05-16T08:04:07Z</time>
</trkpt>
<trkpt lat="49.1406168" lon="2.7057462">
<ele>105.27</ele>
<time>2021-05-16T08:06:05Z</time>
</trkpt>
<trkpt lat="49.1404624" lon="2.7055990">
<ele>106.61</ele>
<time>2021-05-16T08:06:15Z</time>
</trkpt>
<trkpt lat="49.1405660" lon="2.7053695">
<ele>107.88</ele>
<time>2021-05-16T08:06:28Z</time>
</trkpt>
<trkpt lat="49.1407510" lon="2.7053687">
<ele>109.06</ele>
<time>2021-05-16T08:06:42Z</time>
</trkpt>
<trkpt lat="49.1407345" lon="2.7050918">
<ele>104.34</ele>
<time>2021-05-16T08:06:53Z</time>
</trkpt>
<trkpt lat="49.1407644" lon="2.7048088">
<ele>109.72</ele>
<time>2021-05-16T08:07:25Z</time>
</trkpt>
<trkpt lat="49.1407761" lon="2.7044989">
<ele>105.31</ele>
<time>2021-05-16T08:07:35Z</time>
</trkpt>
<trkpt lat="49.1408582" lon="2.7042478">
<ele>97.06</ele>
<time>2021-05-16T08:08:00Z</time>
</trkpt>
<trkpt lat="49.1409627" lon="2.7039908">
<ele>96.11</ele>
<time>2021-05-16T08:08:10Z</time>
</trkpt>
<trkpt lat="49.1411127" lon="2.7038199">
<ele>95.87</ele>
<time>2021-05-16T08:08:24Z</time>
</trkpt>
<trkpt lat="49.1412045" lon="2.7035679">
<ele>93.63</ele>
<time>2021-05-16T08:08:33Z</time>
</trkpt>
<trkpt lat="49.1414031" lon="2.7035705">
<ele>89.18</ele>
<time>2021-05-16T08:09:01Z</time>
</trkpt>
<trkpt lat="49.1415919" lon="2.7036649">
<ele>86.83</ele>
<time>2021-05-16T08:09:08Z</time>
</trkpt>
<trkpt lat="49.1417665" lon="2.7037449">
<ele>83.37</ele>
<time>2021-05-16T08:09:14Z</time>
</trkpt>
<trkpt lat="49.1419390" lon="2.7038300">
<ele>84.72</ele>
<time>2021-05-16T08:09:19Z</time>
</trkpt>
<trkpt lat="49.1421274" lon="2.7040047">
<ele>82.25</ele>
<time>2021-05-16T08:09:23Z</time>
</trkpt>
<trkpt lat="49.1423072" lon="2.7041680">
<ele>80.23</ele>
<time>2021-05-16T08:09:27Z</time>
</trkpt>
<trkpt lat="49.1424995" lon="2.7043578">
<ele>80.87</ele>
<time>2021-05-16T08:09:31Z</time>
</trkpt>
<trkpt lat="49.1426954" lon="2.7045440">
<ele>81.08</ele>
<time>2021-05-16T08:09:35Z</time>
</trkpt>
<trkpt lat="49.1428887" lon="2.7047337">
<ele>79.22</ele>
<time>2021-05-16T08:09:39Z</time>
</trkpt>
<trkpt lat="49.1430715" lon="2.7048992">
<ele>78.13</ele>
<time>2021-05-16T08:09:43Z</time>
</trkpt>
<trkpt lat="49.1431353" lon="2.7051615">
<ele>77.90</ele>
<time>2021-05-16T08:09:48Z</time>
</trkpt>
<trkpt lat="49.1430127" lon="2.7054089">
<ele>80.29</ele>
<time>2021-05-16T08:09:53Z</time>
</trkpt>
<trkpt lat="49.1428957" lon="2.7056569">
<ele>82.17</ele>
<time>2021-05-16T08:09:58Z</time>
</trkpt>
<trkpt lat="49.1427698" lon="2.7059168">
<ele>80.05</ele>
<time>2021-05-16T08:10:04Z</time>
</trkpt>
<trkpt lat="49.1426791" lon="2.7061666">
<ele>77.52</ele>
<time>2021-05-16T08:10:09Z</time>
</trkpt>
<trkpt lat="49.1425891" lon="2.7064202">
<ele>76.99</ele>
<time>2021-05-16T08:10:14Z</time>
</trkpt>
<trkpt lat="49.1424894" lon="2.7066867">
<ele>77.08</ele>
<time>2021-05-16T08:10:19Z</time>
</trkpt>
<trkpt lat="49.1423936" lon="2.7069539">
<ele>75.45</ele>
<time>2021-05-16T08:10:24Z</time>
</trkpt>
<trkpt lat="49.1422686" lon="2.7072184">
<ele>76.70</ele>
<time>2021-05-16T08:10:29Z</time>
</trkpt>
<trkpt lat="49.1421658" lon="2.7074598">
<ele>77.95</ele>
<time>2021-05-16T08:10:34Z</time>
</trkpt>
<trkpt lat="49.1420642" lon="2.7076951">
<ele>78.77</ele>
<time>2021-05-16T08:10:39Z</time>
</trkpt>
<trkpt lat="49.1419622" lon="2.7079391">
<ele>78.31</ele>
<time>2021-05-16T08:10:44Z</time>
</trkpt>
<trkpt lat="49.1418485" lon="2.7081790">
<ele>80.20</ele>
<time>2021-05-16T08:10:49Z</time>
</trkpt>
<trkpt lat="49.1416970" lon="2.7083674">
<ele>81.74</ele>
<time>2021-05-16T08:10:55Z</time>
</trkpt>
<trkpt lat="49.1415080" lon="2.7084993">
<ele>83.49</ele>
<time>2021-05-16T08:11:00Z</time>
</trkpt>
<trkpt lat="49.1413493" lon="2.7086688">
<ele>82.13</ele>
<time>2021-05-16T08:11:05Z</time>
</trkpt>
<trkpt lat="49.1411851" lon="2.7088078">
<ele>83.84</ele>
<time>2021-05-16T08:11:10Z</time>
</trkpt>
<trkpt lat="49.1409916" lon="2.7089556">
<ele>84.05</ele>
<time>2021-05-16T08:11:16Z</time>
</trkpt>
<trkpt lat="49.1408170" lon="2.7090983">
<ele>84.38</ele>
<time>2021-05-16T08:11:22Z</time>
</trkpt>
<trkpt lat="49.1406306" lon="2.7091708">
<ele>89.63</ele>
<time>2021-05-16T08:11:29Z</time>
</trkpt>
<trkpt lat="49.1404502" lon="2.7091748">
<ele>94.69</ele>
<time>2021-05-16T08:11:43Z</time>
</trkpt>
<trkpt lat="49.1404356" lon="2.7094779">
<ele>96.46</ele>
<time>2021-05-16T08:13:03Z</time>
</trkpt>
<trkpt lat="49.1404122" lon="2.7097544">
<ele>99.62</ele>
<time>2021-05-16T08:13:09Z</time>
</trkpt>
<trkpt lat="49.1404849" lon="2.7100467">
<ele>103.27</ele>
<time>2021-05-16T08:13:16Z</time>
</trkpt>
<trkpt lat="49.1405773" lon="2.7103138">
<ele>105.18</ele>
<time>2021-05-16T08:13:23Z</time>
</trkpt>
<trkpt lat="49.1406716" lon="2.7105885">
<ele>108.08</ele>
<time>2021-05-16T08:13:30Z</time>
</trkpt>
<trkpt lat="49.1407118" lon="2.7108625">
<ele>111.20</ele>
<time>2021-05-16T08:13:37Z</time>
</trkpt>
<trkpt lat="49.1408234" lon="2.7111229">
<ele>109.92</ele>
<time>2021-05-16T08:13:43Z</time>
</trkpt>
<trkpt lat="49.1409644" lon="2.7113437">
<ele>111.44</ele>
<time>2021-05-16T08:13:50Z</time>
</trkpt>
<trkpt lat="49.1411339" lon="2.7115120">
<ele>112.42</ele>
<time>2021-05-16T08:13:56Z</time>
</trkpt>
<trkpt lat="49.1412774" lon="2.7117575">
<ele>112.00</ele>
<time>2021-05-16T08:14:00Z</time>
</trkpt>
<trkpt lat="49.1414146" lon="2.7119818">
<ele>111.72</ele>
<time>2021-05-16T08:14:04Z</time>
</trkpt>
<trkpt lat="49.1415087" lon="2.7122467">
<ele>112.64</ele>
<time>2021-05-16T08:14:14Z</time>
</trkpt>
<trkpt lat="49.1415916" lon="2.7125262">
<ele>112.06</ele>
<time>2021-05-16T08:14:20Z</time>
</trkpt>
<trkpt lat="49.1416658" lon="2.7127914">
<ele>113.22</ele>
<time>2021-05-16T08:14:25Z</time>
</trkpt>
<trkpt lat="49.1416415" lon="2.7130647">
<ele>115.72</ele>
<time>2021-05-16T08:14:34Z</time>
</trkpt>
<trkpt lat="49.1416451" lon="2.7133746">
<ele>115.80</ele>
<time>2021-05-16T08:14:52Z</time>
</trkpt>
<trkpt lat="49.1416661" lon="2.7136574">
<ele>117.04</ele>
<time>2021-05-16T08:14:56Z</time>
</trkpt>
<trkpt lat="49.1417497" lon="2.7139216">
<ele>118.69</ele>
<time>2021-05-16T08:15:02Z</time>
</trkpt>
<trkpt lat="49.1418067" lon="2.7141924">
<ele>119.76</ele>
<time>2021-05-16T08:15:11Z</time>
</trkpt>
<trkpt lat="49.1419688" lon="2.7143889">
<ele>120.84</ele>
<time>2021-05-16T08:15:27Z</time>
</trkpt>
<trkpt lat="49.1421394" lon="2.7145779">
<ele>121.51</ele>
<time>2021-05-16T08:15:32Z</time>
</trkpt>
<trkpt lat="49.1422853" lon="2.7147396">
<ele>125.84</ele>
<time>2021-05-16T08:15:36Z</time>
</trkpt>
<trkpt lat="49.1424448" lon="2.7148774">
<ele>128.66</ele>
<time>2021-05-16T08:15:41Z</time>
</trkpt>
<trkpt lat="49.1426160" lon="2.7150214">
<ele>130.37</ele>
<time>2021-05-16T08:15:46Z</time>
</trkpt>
<trkpt lat="49.1427778" lon="2.7151575">
<ele>131.54</ele>
<time>2021-05-16T08:15:51Z</time>
</trkpt>
<trkpt lat="49.1429418" lon="2.7153095">
<ele>129.84</ele>
<time>2021-05-16T08:15:55Z</time>
</trkpt>
<trkpt lat="49.1431020" lon="2.7154699">
<ele>128.56</ele>
<time>2021-05-16T08:16:01Z</time>
</trkpt>
<trkpt lat="49.1432664" lon="2.7156035">
<ele>128.41</ele>
<time>2021-05-16T08:16:05Z</time>
</trkpt>
<trkpt lat="49.1434640" lon="2.7157636">
<ele>126.89</ele>
<time>2021-05-16T08:16:10Z</time>
</trkpt>
<trkpt lat="49.1436309" lon="2.7159132">
<ele>124.37</ele>
<time>2021-05-16T08:16:14Z</time>
</trkpt>
<trkpt lat="49.1437837" lon="2.7160837">
<ele>127.57</ele>
<time>2021-05-16T08:16:18Z</time>
</trkpt>
<trkpt lat="49.1439757" lon="2.7162361">
<ele>126.90</ele>
<time>2021-05-16T08:16:24Z</time>
</trkpt>
<trkpt lat="49.1441392" lon="2.7163945">
<ele>130.13</ele>
<time>2021-05-16T08:16:28Z</time>
</trkpt>
<trkpt lat="49.1443601" lon="2.7165490">
<ele>125.74</ele>
<time>2021-05-16T08:16:32Z</time>
</trkpt>
<trkpt lat="49.1445121" lon="2.7167597">
<ele>126.69</ele>
<time>2021-05-16T08:16:38Z</time>
</trkpt>
<trkpt lat="49.1446418" lon="2.7169569">
<ele>127.81</ele>
<time>2021-05-16T08:16:41Z</time>
</trkpt>
<trkpt lat="49.1448126" lon="2.7170766">
<ele>125.25</ele>
<time>2021-05-16T08:16:46Z</time>
</trkpt>
<trkpt lat="49.1449737" lon="2.7169339">
<ele>126.93</ele>
<time>2021-05-16T08:17:04Z</time>
</trkpt>
<trkpt lat="49.1451119" lon="2.7167542">
<ele>124.55</ele>
<time>2021-05-16T08:17:13Z</time>
</trkpt>
<trkpt lat="49.1449914" lon="2.7169720">
<ele>127.05</ele>
<time>2021-05-16T08:17:58Z</time>
</trkpt>
<trkpt lat="49.1451736" lon="2.7171140">
<ele>129.02</ele>
<time>2021-05-16T08:18:04Z</time>
</trkpt>
<trkpt lat="49.1453744" lon="2.7172220">
<ele>129.74</ele>
<time>2021-05-16T08:18:09Z</time>
</trkpt>
<trkpt lat="49.1455000" lon="2.7169392">
<ele>125.30</ele>
<time>2021-05-16T08:18:15Z</time>
</trkpt>
<trkpt lat="49.1456102" lon="2.7166275">
<ele>122.00</ele>
<time>2021-05-16T08:18:18Z</time>
</trkpt>
<trkpt lat="49.1457597" lon="2.7163542">
<ele>114.69</ele>
<time>2021-05-16T08:18:22Z</time>
</trkpt>
<trkpt lat="49.1458826" lon="2.7160372">
<ele>112.20</ele>
<time>2021-05-16T08:18:26Z</time>
</trkpt>
<trkpt lat="49.1460120" lon="2.7158139">
<ele>110.88</ele>
<time>2021-05-16T08:18:31Z</time>
</trkpt>
<trkpt lat="49.1461632" lon="2.7156153">
<ele>114.06</ele>
<time>2021-05-16T08:18:39Z</time>
</trkpt>
<trkpt lat="49.1461063" lon="2.7153186">
<ele>108.35</ele>
<time>2021-05-16T08:19:02Z</time>
</trkpt>
<trkpt lat="49.1461820" lon="2.7150525">
<ele>111.55</ele>
<time>2021-05-16T08:37:10Z</time>
</trkpt>
<trkpt lat="49.1463280" lon="2.7152398">
<ele>112.95</ele>
<time>2021-05-16T08:37:37Z</time>
</trkpt>
<trkpt lat="49.1463657" lon="2.7155092">
<ele>117.49</ele>
<time>2021-05-16T08:37:46Z</time>
</trkpt>
<trkpt lat="49.1464072" lon="2.7158158">
<ele>117.89</ele>
<time>2021-05-16T08:37:53Z</time>
</trkpt>
<trkpt lat="49.1465253" lon="2.7160710">
<ele>116.68</ele>
<time>2021-05-16T08:38:00Z</time>
</trkpt>
<trkpt lat="49.1466375" lon="2.7163200">
<ele>118.38</ele>
<time>2021-05-16T08:38:07Z</time>
</trkpt>
<trkpt lat="49.1467132" lon="2.7165819">
<ele>121.73</ele>
<time>2021-05-16T08:38:13Z</time>
</trkpt>
<trkpt lat="49.1468821" lon="2.7167615">
<ele>123.96</ele>
<time>2021-05-16T08:38:20Z</time>
</trkpt>
<trkpt lat="49.1470916" lon="2.7167503">
<ele>124.06</ele>
<time>2021-05-16T08:38:25Z</time>
</trkpt>
<trkpt lat="49.1472654" lon="2.7168561">
<ele>125.14</ele>
<time>2021-05-16T08:38:29Z</time>
</trkpt>
<trkpt lat="49.1474046" lon="2.7170336">
<ele>124.14</ele>
<time>2021-05-16T08:38:36Z</time>
</trkpt>
<trkpt lat="49.1475880" lon="2.7172539">
<ele>123.38</ele>
<time>2021-05-16T08:38:40Z</time>
</trkpt>
<trkpt lat="49.1477448" lon="2.7173987">
<ele>122.12</ele>
<time>2021-05-16T08:39:19Z</time>
</trkpt>
<trkpt lat="49.1478851" lon="2.7176133">
<ele>125.04</ele>
<time>2021-05-16T08:39:29Z</time>
</trkpt>
<trkpt lat="49.1480639" lon="2.7175779">
<ele>126.09</ele>
<time>2021-05-16T08:39:41Z</time>
</trkpt>
<trkpt lat="49.1482221" lon="2.7177823">
<ele>123.90</ele>
<time>2021-05-16T08:39:48Z</time>
</trkpt>
<trkpt lat="49.1483921" lon="2.7179783">
<ele>122.33</ele>
<time>2021-05-16T08:39:51Z</time>
</trkpt>
<trkpt lat="49.1485917" lon="2.7180349">
<ele>121.56</ele>
<time>2021-05-16T08:39:58Z</time>
</trkpt>
<trkpt lat="49.1487876" lon="2.7182726">
<ele>120.40</ele>
<time>2021-05-16T08:40:05Z</time>
</trkpt>
<trkpt lat="49.1488963" lon="2.7185072">
<ele>122.19</ele>
<time>2021-05-16T08:40:14Z</time>
</trkpt>
<trkpt lat="49.1491025" lon="2.7185215">
<ele>121.84</ele>
<time>2021-05-16T08:40:19Z</time>
</trkpt>
<trkpt lat="49.1491899" lon="2.7182051">
<ele>114.69</ele>
<time>2021-05-16T08:40:27Z</time>
</trkpt>
<trkpt lat="49.1492629" lon="2.7178959">
<ele>109.91</ele>
<time>2021-05-16T08:40:32Z</time>
</trkpt>
<trkpt lat="49.1494613" lon="2.7177208">
<ele>107.09</ele>
<time>2021-05-16T08:40:36Z</time>
</trkpt>
<trkpt lat="49.1495793" lon="2.7174940">
<ele>102.68</ele>
<time>2021-05-16T08:40:40Z</time>
</trkpt>
<trkpt lat="49.1497637" lon="2.7173959">
<ele>100.99</ele>
<time>2021-05-16T08:40:45Z</time>
</trkpt>
<trkpt lat="49.1499324" lon="2.7175078">
<ele>101.06</ele>
<time>2021-05-16T08:40:50Z</time>
</trkpt>
<trkpt lat="49.1501074" lon="2.7176450">
<ele>101.38</ele>
<time>2021-05-16T08:41:01Z</time>
</trkpt>
<trkpt lat="49.1503109" lon="2.7176592">
<ele>97.39</ele>
<time>2021-05-16T08:41:06Z</time>
</trkpt>
<trkpt lat="49.1504915" lon="2.7176988">
<ele>93.71</ele>
<time>2021-05-16T08:41:21Z</time>
</trkpt>
<trkpt lat="49.1506986" lon="2.7177877">
<ele>93.98</ele>
<time>2021-05-16T08:41:26Z</time>
</trkpt>
<trkpt lat="49.1508819" lon="2.7179334">
<ele>97.00</ele>
<time>2021-05-16T08:41:38Z</time>
</trkpt>
<trkpt lat="49.1510191" lon="2.7181242">
<ele>94.64</ele>
<time>2021-05-16T08:41:42Z</time>
</trkpt>
<trkpt lat="49.1509198" lon="2.7183563">
<ele>96.92</ele>
<time>2021-05-16T08:41:48Z</time>
</trkpt>
<trkpt lat="49.1509347" lon="2.7186392">
<ele>98.50</ele>
<time>2021-05-16T08:41:53Z</time>
</trkpt>
<trkpt lat="49.1509571" lon="2.7189544">
<ele>99.16</ele>
<time>2021-05-16T08:41:59Z</time>
</trkpt>
<trkpt lat="49.1509894" lon="2.7192311">
<ele>98.52</ele>
<time>2021-05-16T08:42:05Z</time>
</trkpt>
<trkpt lat="49.1509506" lon="2.7195457">
<ele>99.28</ele>
<time>2021-05-16T08:42:12Z</time>
</trkpt>
<trkpt lat="49.1509565" lon="2.7198326">
<ele>99.55</ele>
<time>2021-05-16T08:42:19Z</time>
</trkpt>
<trkpt lat="49.1509939" lon="2.7201207">
<ele>99.48</ele>
<time>2021-05-16T08:42:23Z</time>
</trkpt>
<trkpt lat="49.1509943" lon="2.7204246">
<ele>98.48</ele>
<time>2021-05-16T08:42:28Z</time>
</trkpt>
<trkpt lat="49.1509829" lon="2.7207901">
<ele>96.11</ele>
<time>2021-05-16T08:42:34Z</time>
</trkpt>
<trkpt lat="49.1509378" lon="2.7210942">
<ele>94.90</ele>
<time>2021-05-16T08:42:39Z</time>
</trkpt>
<trkpt lat="49.1509817" lon="2.7214366">
<ele>93.35</ele>
<time>2021-05-16T08:42:46Z</time>
</trkpt>
<trkpt lat="49.1508596" lon="2.7216533">
<ele>93.53</ele>
<time>2021-05-16T08:42:58Z</time>
</trkpt>
<trkpt lat="49.1506502" lon="2.7216830">
<ele>92.44</ele>
<time>2021-05-16T08:43:06Z</time>
</trkpt>
<trkpt lat="49.1504625" lon="2.7216274">
<ele>95.24</ele>
<time>2021-05-16T08:43:15Z</time>
</trkpt>
<trkpt lat="49.1503620" lon="2.7213758">
<ele>103.12</ele>
<time>2021-05-16T08:43:24Z</time>
</trkpt>
<trkpt lat="49.1502933" lon="2.7211165">
<ele>107.02</ele>
<time>2021-05-16T08:43:36Z</time>
</trkpt>
<trkpt lat="49.1501232" lon="2.7209572">
<ele>109.04</ele>
<time>2021-05-16T08:43:46Z</time>
</trkpt>
<trkpt lat="49.1499739" lon="2.7207928">
<ele>109.00</ele>
<time>2021-05-16T08:43:55Z</time>
</trkpt>
<trkpt lat="49.1499033" lon="2.7205126">
<ele>108.63</ele>
<time>2021-05-16T08:44:06Z</time>
</trkpt>
<trkpt lat="49.1499265" lon="2.7202021">
<ele>108.70</ele>
<time>2021-05-16T08:44:16Z</time>
</trkpt>
<trkpt lat="49.1499769" lon="2.7199357">
<ele>110.07</ele>
<time>2021-05-16T08:44:23Z</time>
</trkpt>
<trkpt lat="49.1499267" lon="2.7196520">
<ele>110.42</ele>
<time>2021-05-16T08:44:29Z</time>
</trkpt>
<trkpt lat="49.1497718" lon="2.7194393">
<ele>114.16</ele>
<time>2021-05-16T08:44:38Z</time>
</trkpt>
<trkpt lat="49.1496025" lon="2.7193339">
<ele>113.48</ele>
<time>2021-05-16T08:44:43Z</time>
</trkpt>
<trkpt lat="49.1494328" lon="2.7191869">
<ele>114.88</ele>
<time>2021-05-16T08:44:50Z</time>
</trkpt>
<trkpt lat="49.1492796" lon="2.7189828">
<ele>116.29</ele>
<time>2021-05-16T08:44:57Z</time>
</trkpt>
<trkpt lat="49.1494266" lon="2.7187795">
<ele>116.82</ele>
<time>2021-05-16T08:45:15Z</time>
</trkpt>
<trkpt lat="49.1495722" lon="2.7186026">
<ele>114.64</ele>
<time>2021-05-16T08:45:26Z</time>
</trkpt>
<trkpt lat="49.1497340" lon="2.7184474">
<ele>112.24</ele>
<time>2021-05-16T08:45:32Z</time>
</trkpt>
<trkpt lat="49.1498746" lon="2.7182496">
<ele>107.20</ele>
<time>2021-05-16T08:45:43Z</time>
</trkpt>
<trkpt lat="49.1499713" lon="2.7179994">
<ele>103.74</ele>
<time>2021-05-16T08:45:49Z</time>
</trkpt>
<trkpt lat="49.1500676" lon="2.7177588">
<ele>99.69</ele>
<time>2021-05-16T08:47:12Z</time>
</trkpt>
<trkpt lat="49.1501113" lon="2.7174670">
<ele>100.20</ele>
<time>2021-05-16T08:47:32Z</time>
</trkpt>
<trkpt lat="49.1501499" lon="2.7171639">
<ele>96.31</ele>
<time>2021-05-16T08:47:38Z</time>
</trkpt>
<trkpt lat="49.1501459" lon="2.7168497">
<ele>95.14</ele>
<time>2021-05-16T08:47:43Z</time>
</trkpt>
<trkpt lat="49.1499881" lon="2.7167115">
<ele>96.68</ele>
<time>2021-05-16T08:47:49Z</time>
</trkpt>
<trkpt lat="49.1498050" lon="2.7167015">
<ele>94.92</ele>
<time>2021-05-16T08:47:56Z</time>
</trkpt>
<trkpt lat="49.1496943" lon="2.7164496">
<ele>92.30</ele>
<time>2021-05-16T08:48:04Z</time>
</trkpt>
<trkpt lat="49.1497297" lon="2.7161460">
<ele>91.44</ele>
<time>2021-05-16T08:48:11Z</time>
</trkpt>
<trkpt lat="49.1498111" lon="2.7158525">
<ele>89.85</ele>
<time>2021-05-16T08:48:17Z</time>
</trkpt>
<trkpt lat="49.1498338" lon="2.7155664">
<ele>87.94</ele>
<time>2021-05-16T08:48:28Z</time>
</trkpt>
<trkpt lat="49.1497440" lon="2.7153268">
<ele>89.80</ele>
<time>2021-05-16T08:48:37Z</time>
</trkpt>
<trkpt lat="49.1495992" lon="2.7151173">
<ele>87.31</ele>
<time>2021-05-16T08:49:37Z</time>
</trkpt>
<trkpt lat="49.1494265" lon="2.7149713">
<ele>87.92</ele>
<time>2021-05-16T08:49:44Z</time>
</trkpt>
<trkpt lat="49.1492663" lon="2.7148153">
<ele>90.00</ele>
<time>2021-05-16T08:49:54Z</time>
</trkpt>
<trkpt lat="49.1491107" lon="2.7146251">
<ele>89.62</ele>
<time>2021-05-16T08:50:02Z</time>
</trkpt>
<trkpt lat="49.1489501" lon="2.7144574">
<ele>93.13</ele>
<time>2021-05-16T08:50:11Z</time>
</trkpt>
<trkpt lat="49.1487967" lon="2.7142436">
<ele>94.53</ele>
<time>2021-05-16T08:50:19Z</time>
</trkpt>
<trkpt lat="49.1486404" lon="2.7140192">
<ele>93.91</ele>
<time>2021-05-16T08:50:25Z</time>
</trkpt>
<trkpt lat="49.1484825" lon="2.7138087">
<ele>91.31</ele>
<time>2021-05-16T08:50:29Z</time>
</trkpt>
<trkpt lat="49.1483201" lon="2.7136297">
<ele>89.67</ele>
<time>2021-05-16T08:50:35Z</time>
</trkpt>
<trkpt lat="49.1481787" lon="2.7133820">
<ele>88.21</ele>
<time>2021-05-16T08:50:41Z</time>
</trkpt>
<trkpt lat="49.1480100" lon="2.7131684">
<ele>85.97</ele>
<time>2021-05-16T08:50:46Z</time>
</trkpt>
<trkpt lat="49.1478468" lon="2.7130092">
<ele>86.68</ele>
<time>2021-05-16T08:50:52Z</time>
</trkpt>
<trkpt lat="49.1476767" lon="2.7128026">
<ele>88.48</ele>
<time>2021-05-16T08:50:58Z</time>
</trkpt>
<trkpt lat="49.1475308" lon="2.7126396">
<ele>86.99</ele>
<time>2021-05-16T08:51:07Z</time>
</trkpt>
<trkpt lat="49.1476929" lon="2.7124688">
<ele>89.84</ele>
<time>2021-05-16T08:58:21Z</time>
</trkpt>
<trkpt lat="49.1478234" lon="2.7122591">
<ele>93.45</ele>
<time>2021-05-16T08:58:27Z</time>
</trkpt>
<trkpt lat="49.1479716" lon="2.7120506">
<ele>92.52</ele>
<time>2021-05-16T08:58:32Z</time>
</trkpt>
<trkpt lat="49.1481107" lon="2.7118569">
<ele>93.08</ele>
<time>2021-05-16T08:58:39Z</time>
</trkpt>
<trkpt lat="49.1482714" lon="2.7116307">
<ele>91.20</ele>
<time>2021-05-16T08:58:44Z</time>
</trkpt>
<trkpt lat="49.1484205" lon="2.7113980">
<ele>90.06</ele>
<time>2021-05-16T08:58:50Z</time>
</trkpt>
<trkpt lat="49.1485605" lon="2.7111816">
<ele>86.71</ele>
<time>2021-05-16T08:58:55Z</time>
</trkpt>
<trkpt lat="49.1487210" lon="2.7108959">
<ele>87.10</ele>
<time>2021-05-16T08:59:01Z</time>
</trkpt>
<trkpt lat="49.1488914" lon="2.7107015">
<ele>88.61</ele>
<time>2021-05-16T08:59:07Z</time>
</trkpt>
<trkpt lat="49.1490039" lon="2.7104660">
<ele>92.38</ele>
<time>2021-05-16T08:59:13Z</time>
</trkpt>
<trkpt lat="49.1491287" lon="2.7102450">
<ele>91.05</ele>
<time>2021-05-16T08:59:18Z</time>
</trkpt>
<trkpt lat="49.1492674" lon="2.7100645">
<ele>90.92</ele>
<time>2021-05-16T08:59:23Z</time>
</trkpt>
<trkpt lat="49.1493987" lon="2.7098332">
<ele>88.27</ele>
<time>2021-05-16T08:59:30Z</time>
</trkpt>
<trkpt lat="49.1495648" lon="2.7096259">
<ele>85.39</ele>
<time>2021-05-16T08:59:37Z</time>
</trkpt>
<trkpt lat="49.1496952" lon="2.7094027">
<ele>85.61</ele>
<time>2021-05-16T08:59:44Z</time>
</trkpt>
<trkpt lat="49.1495459" lon="2.7095697">
<ele>87.38</ele>
<time>2021-05-16T09:03:27Z</time>
</trkpt>
<trkpt lat="49.1494132" lon="2.7097888">
<ele>91.45</ele>
<time>2021-05-16T09:03:34Z</time>
</trkpt>
<trkpt lat="49.1493072" lon="2.7100112">
<ele>87.58</ele>
<time>2021-05-16T09:03:41Z</time>
</trkpt>
<trkpt lat="49.1491699" lon="2.7101892">
<ele>83.35</ele>
<time>2021-05-16T09:03:49Z</time>
</trkpt>
<trkpt lat="49.1490422" lon="2.7104120">
<ele>80.94</ele>
<time>2021-05-16T09:03:56Z</time>
</trkpt>
<trkpt lat="49.1488951" lon="2.7106019">
<ele>82.45</ele>
<time>2021-05-16T09:04:00Z</time>
</trkpt>
<trkpt lat="49.1487632" lon="2.7108178">
<ele>88.70</ele>
<time>2021-05-16T09:04:04Z</time>
</trkpt>
<trkpt lat="49.1486437" lon="2.7110486">
<ele>87.85</ele>
<time>2021-05-16T09:04:10Z</time>
</trkpt>
<trkpt lat="49.1485080" lon="2.7112847">
<ele>88.82</ele>
<time>2021-05-16T09:04:15Z</time>
</trkpt>
<trkpt lat="49.1483484" lon="2.7115066">
<ele>90.94</ele>
<time>2021-05-16T09:04:20Z</time>
</trkpt>
<trkpt lat="49.1482171" lon="2.7117236">
<ele>91.49</ele>
<time>2021-05-16T09:04:25Z</time>
</trkpt>
<trkpt lat="49.1480866" lon="2.7119278">
<ele>90.44</ele>
<time>2021-05-16T09:04:31Z</time>
</trkpt>
<trkpt lat="49.1479688" lon="2.7121579">
<ele>90.30</ele>
<time>2021-05-16T09:04:35Z</time>
</trkpt>
<trkpt lat="49.1477913" lon="2.7122860">
<ele>85.86</ele>
<time>2021-05-16T09:04:43Z</time>
</trkpt>
<trkpt lat="49.1476083" lon="2.7123107">
<ele>87.12</ele>
<time>2021-05-16T09:04:49Z</time>
</trkpt>
<trkpt lat="49.1474244" lon="2.7123711">
<ele>90.73</ele>
<time>2021-05-16T09:04:55Z</time>
</trkpt>
<trkpt lat="49.1472580" lon="2.7121791">
<ele>92.87</ele>
<time>2021-05-16T09:05:03Z</time>
</trkpt>
<trkpt lat="49.1471165" lon="2.7119929">
<ele>92.85</ele>
<time>2021-05-16T09:05:08Z</time>
</trkpt>
<trkpt lat="49.1470103" lon="2.7117694">
<ele>91.92</ele>
<time>2021-05-16T09:05:13Z</time>
</trkpt>
<trkpt lat="49.1468810" lon="2.7115662">
<ele>89.22</ele>
<time>2021-05-16T09:05:17Z</time>
</trkpt>
<trkpt lat="49.1467291" lon="2.7113373">
<ele>87.00</ele>
<time>2021-05-16T09:05:31Z</time>
</trkpt>
<trkpt lat="49.1465908" lon="2.7110983">
<ele>85.72</ele>
<time>2021-05-16T09:05:36Z</time>
</trkpt>
<trkpt lat="49.1464224" lon="2.7108935">
<ele>86.70</ele>
<time>2021-05-16T09:05:41Z</time>
</trkpt>
<trkpt lat="49.1462885" lon="2.7107020">
<ele>86.84</ele>
<time>2021-05-16T09:05:45Z</time>
</trkpt>
<trkpt lat="49.1461343" lon="2.7104795">
<ele>84.92</ele>
<time>2021-05-16T09:05:49Z</time>
</trkpt>
<trkpt lat="49.1459924" lon="2.7102823">
<ele>85.48</ele>
<time>2021-05-16T09:05:53Z</time>
</trkpt>
<trkpt lat="49.1458178" lon="2.7103831">
<ele>93.00</ele>
<time>2021-05-16T09:06:05Z</time>
</trkpt>
<trkpt lat="49.1457365" lon="2.7106733">
<ele>90.23</ele>
<time>2021-05-16T09:06:12Z</time>
</trkpt>
<trkpt lat="49.1456726" lon="2.7109631">
<ele>90.84</ele>
<time>2021-05-16T09:06:19Z</time>
</trkpt>
<trkpt lat="49.1456205" lon="2.7112404">
<ele>92.34</ele>
<time>2021-05-16T09:06:26Z</time>
</trkpt>
<trkpt lat="49.1455516" lon="2.7114984">
<ele>93.69</ele>
<time>2021-05-16T09:06:32Z</time>
</trkpt>
<trkpt lat="49.1454578" lon="2.7117875">
<ele>97.46</ele>
<time>2021-05-16T09:06:39Z</time>
</trkpt>
<trkpt lat="49.1453887" lon="2.7120639">
<ele>96.03</ele>
<time>2021-05-16T09:06:46Z</time>
</trkpt>
<trkpt lat="49.1453013" lon="2.7123393">
<ele>98.89</ele>
<time>2021-05-16T09:06:53Z</time>
</trkpt>
<trkpt lat="49.1452065" lon="2.7126083">
<ele>99.30</ele>
<time>2021-05-16T09:07:00Z</time>
</trkpt>
<trkpt lat="49.1451316" lon="2.7128629">
<ele>100.51</ele>
<time>2021-05-16T09:07:06Z</time>
</trkpt>
<trkpt lat="49.1450870" lon="2.7131496">
<ele>99.99</ele>
<time>2021-05-16T09:07:14Z</time>
</trkpt>
<trkpt lat="49.1450180" lon="2.7134077">
<ele>103.00</ele>
<time>2021-05-16T09:07:22Z</time>
</trkpt>
<trkpt lat="49.1449650" lon="2.7137023">
<ele>105.18</ele>
<time>2021-05-16T09:07:29Z</time>
</trkpt>
<trkpt lat="49.1449814" lon="2.7139966">
<ele>103.78</ele>
<time>2021-05-16T09:07:36Z</time>
</trkpt>
<trkpt lat="49.1450633" lon="2.7142421">
<ele>104.84</ele>
<time>2021-05-16T09:07:43Z</time>
</trkpt>
<trkpt lat="49.1451603" lon="2.7144740">
<ele>103.43</ele>
<time>2021-05-16T09:07:50Z</time>
</trkpt>
<trkpt lat="49.1453129" lon="2.7146436">
<ele>103.84</ele>
<time>2021-05-16T09:07:56Z</time>
</trkpt>
<trkpt lat="49.1454812" lon="2.7147964">
<ele>105.95</ele>
<time>2021-05-16T09:08:02Z</time>
</trkpt>
<trkpt lat="49.1456178" lon="2.7149807">
<ele>106.98</ele>
<time>2021-05-16T09:08:09Z</time>
</trkpt>
<trkpt lat="49.1457123" lon="2.7152359">
<ele>105.27</ele>
<time>2021-05-16T09:08:16Z</time>
</trkpt>
<trkpt lat="49.1457948" lon="2.7155244">
<ele>105.05</ele>
<time>2021-05-16T09:08:24Z</time>
</trkpt>
<trkpt lat="49.1458173" lon="2.7158219">
<ele>106.51</ele>
<time>2021-05-16T09:08:32Z</time>
</trkpt>
<trkpt lat="49.1458130" lon="2.7160973">
<ele>114.09</ele>
<time>2021-05-16T09:08:40Z</time>
</trkpt>
<trkpt lat="49.1456998" lon="2.7163385">
<ele>115.76</ele>
<time>2021-05-16T09:08:47Z</time>
</trkpt>
<trkpt lat="49.1455851" lon="2.7165715">
<ele>116.51</ele>
<time>2021-05-16T09:08:56Z</time>
</trkpt>
<trkpt lat="49.1455128" lon="2.7168570">
<ele>119.23</ele>
<time>2021-05-16T09:09:03Z</time>
</trkpt>
<trkpt lat="49.1454357" lon="2.7171204">
<ele>118.94</ele>
<time>2021-05-16T09:09:10Z</time>
</trkpt>
<trkpt lat="49.1452449" lon="2.7171909">
<ele>123.21</ele>
<time>2021-05-16T09:09:21Z</time>
</trkpt>
<trkpt lat="49.1450611" lon="2.7171292">
<ele>128.48</ele>
<time>2021-05-16T09:09:28Z</time>
</trkpt>
<trkpt lat="49.1448738" lon="2.7170916">
<ele>125.59</ele>
<time>2021-05-16T09:09:34Z</time>
</trkpt>
<trkpt lat="49.1446856" lon="2.7171821">
<ele>124.00</ele>
<time>2021-05-16T09:09:42Z</time>
</trkpt>
<trkpt lat="49.1445524" lon="2.7173986">
<ele>125.96</ele>
<time>2021-05-16T09:09:49Z</time>
</trkpt>
<trkpt lat="49.1444367" lon="2.7176328">
<ele>126.47</ele>
<time>2021-05-16T09:09:55Z</time>
</trkpt>
<trkpt lat="49.1443069" lon="2.7178388">
<ele>124.78</ele>
<time>2021-05-16T09:10:04Z</time>
</trkpt>
<trkpt lat="49.1441646" lon="2.7180257">
<ele>128.73</ele>
<time>2021-05-16T09:10:10Z</time>
</trkpt>
<trkpt lat="49.1440488" lon="2.7182748">
<ele>129.48</ele>
<time>2021-05-16T09:10:18Z</time>
</trkpt>
<trkpt lat="49.1439264" lon="2.7184883">
<ele>129.92</ele>
<time>2021-05-16T09:10:24Z</time>
</trkpt>
<trkpt lat="49.1437842" lon="2.7186574">
<ele>132.44</ele>
<time>2021-05-16T09:10:29Z</time>
</trkpt>
<trkpt lat="49.1436390" lon="2.7188789">
<ele>128.37</ele>
<time>2021-05-16T09:10:36Z</time>
</trkpt>
<trkpt lat="49.1435175" lon="2.7191127">
<ele>126.66</ele>
<time>2021-05-16T09:10:42Z</time>
</trkpt>
<trkpt lat="49.1433940" lon="2.7193735">
<ele>127.89</ele>
<time>2021-05-16T09:10:47Z</time>
</trkpt>
<trkpt lat="49.1433257" lon="2.7196357">
<ele>129.94</ele>
<time>2021-05-16T09:10:52Z</time>
</trkpt>
<trkpt lat="49.1432241" lon="2.7198658">
<ele>129.01</ele>
<time>2021-05-16T09:10:56Z</time>
</trkpt>
<trkpt lat="49.1431281" lon="2.7201540">
<ele>126.90</ele>
<time>2021-05-16T09:11:02Z</time>
</trkpt>
<trkpt lat="49.1430099" lon="2.7204353">
<ele>128.23</ele>
<time>2021-05-16T09:11:07Z</time>
</trkpt>
<trkpt lat="49.1428502" lon="2.7206655">
<ele>124.79</ele>
<time>2021-05-16T09:11:12Z</time>
</trkpt>
<trkpt lat="49.1427214" lon="2.7208877">
<ele>124.84</ele>
<time>2021-05-16T09:11:16Z</time>
</trkpt>
<trkpt lat="49.1425982" lon="2.7211398">
<ele>126.81</ele>
<time>2021-05-16T09:11:20Z</time>
</trkpt>
<trkpt lat="49.1424516" lon="2.7214076">
<ele>123.44</ele>
<time>2021-05-16T09:11:25Z</time>
</trkpt>
<trkpt lat="49.1423199" lon="2.7216737">
<ele>125.01</ele>
<time>2021-05-16T09:11:30Z</time>
</trkpt>
<trkpt lat="49.1421914" lon="2.7219340">
<ele>124.26</ele>
<time>2021-05-16T09:11:35Z</time>
</trkpt>
<trkpt lat="49.1420903" lon="2.7221964">
<ele>124.81</ele>
<time>2021-05-16T09:11:40Z</time>
</trkpt>
<trkpt lat="49.1419625" lon="2.7224659">
<ele>124.02</ele>
<time>2021-05-16T09:11:45Z</time>
</trkpt>
<trkpt lat="49.1418664" lon="2.7226987">
<ele>125.65</ele>
<time>2021-05-16T09:11:49Z</time>
</trkpt>
<trkpt lat="49.1417526" lon="2.7229296">
<ele>126.32</ele>
<time>2021-05-16T09:11:54Z</time>
</trkpt>
<trkpt lat="49.1416121" lon="2.7231823">
<ele>123.36</ele>
<time>2021-05-16T09:11:59Z</time>
</trkpt>
<trkpt lat="49.1414985" lon="2.7234543">
<ele>123.55</ele>
<time>2021-05-16T09:12:04Z</time>
</trkpt>
<trkpt lat="49.1413693" lon="2.7236754">
<ele>123.64</ele>
<time>2021-05-16T09:12:08Z</time>
</trkpt>
<trkpt lat="49.1412614" lon="2.7239124">
<ele>123.13</ele>
<time>2021-05-16T09:12:12Z</time>
</trkpt>
<trkpt lat="49.1410823" lon="2.7242066">
<ele>122.44</ele>
<time>2021-05-16T09:12:18Z</time>
</trkpt>
<trkpt lat="49.1409597" lon="2.7244912">
<ele>123.78</ele>
<time>2021-05-16T09:12:22Z</time>
</trkpt>
<trkpt lat="49.1408165" lon="2.7247323">
<ele>120.86</ele>
<time>2021-05-16T09:12:27Z</time>
</trkpt>
<trkpt lat="49.1407283" lon="2.7250070">
<ele>119.15</ele>
<time>2021-05-16T09:12:31Z</time>
</trkpt>
<trkpt lat="49.1406259" lon="2.7252434">
<ele>118.21</ele>
<time>2021-05-16T09:12:35Z</time>
</trkpt>
<trkpt lat="49.1405055" lon="2.7254808">
<ele>117.18</ele>
<time>2021-05-16T09:12:39Z</time>
</trkpt>
<trkpt lat="49.1404119" lon="2.7257460">
<ele>114.02</ele>
<time>2021-05-16T09:12:43Z</time>
</trkpt>
<trkpt lat="49.1403395" lon="2.7260303">
<ele>114.94</ele>
<time>2021-05-16T09:12:47Z</time>
</trkpt>
<trkpt lat="49.1402515" lon="2.7263047">
<ele>114.40</ele>
<time>2021-05-16T09:12:52Z</time>
</trkpt>
<trkpt lat="49.1401637" lon="2.7266197">
<ele>116.56</ele>
<time>2021-05-16T09:12:57Z</time>
</trkpt>
<trkpt lat="49.1400471" lon="2.7269120">
<ele>116.24</ele>
<time>2021-05-16T09:13:02Z</time>
</trkpt>
<trkpt lat="49.1399615" lon="2.7271639">
<ele>115.30</ele>
<time>2021-05-16T09:13:07Z</time>
</trkpt>
<trkpt lat="49.1398560" lon="2.7273909">
<ele>114.71</ele>
<time>2021-05-16T09:13:13Z</time>
</trkpt>
<trkpt lat="49.1397235" lon="2.7275854">
<ele>112.94</ele>
<time>2021-05-16T09:13:19Z</time>
</trkpt>
<trkpt lat="49.1395304" lon="2.7277345">
<ele>114.02</ele>
<time>2021-05-16T09:13:24Z</time>
</trkpt>
<trkpt lat="49.1393432" lon="2.7278995">
<ele>113.58</ele>
<time>2021-05-16T09:13:29Z</time>
</trkpt>
<trkpt lat="49.1391751" lon="2.7280421">
<ele>112.63</ele>
<time>2021-05-16T09:13:34Z</time>
</trkpt>
<trkpt lat="49.1389902" lon="2.7282205">
<ele>113.75</ele>
<time>2021-05-16T09:13:39Z</time>
</trkpt>
<trkpt lat="49.1388149" lon="2.7283891">
<ele>114.53</ele>
<time>2021-05-16T09:13:44Z</time>
</trkpt>
<trkpt lat="49.1386107" lon="2.7284882">
<ele>110.03</ele>
<time>2021-05-16T09:13:49Z</time>
</trkpt>
<trkpt lat="49.1384357" lon="2.7286182">
<ele>107.96</ele>
<time>2021-05-16T09:13:53Z</time>
</trkpt>
<trkpt lat="49.1382614" lon="2.7288287">
<ele>109.40</ele>
<time>2021-05-16T09:13:58Z</time>
</trkpt>
<trkpt lat="49.1380761" lon="2.7289161">
<ele>109.97</ele>
<time>2021-05-16T09:14:02Z</time>
</trkpt>
<trkpt lat="49.1379110" lon="2.7287993">
<ele>109.21</ele>
<time>2021-05-16T09:14:06Z</time>
</trkpt>
<trkpt lat="49.1377337" lon="2.7286789">
<ele>108.74</ele>
<time>2021-05-16T09:14:11Z</time>
</trkpt>
<trkpt lat="49.1375470" lon="2.7285962">
<ele>108.53</ele>
<time>2021-05-16T09:14:17Z</time>
</trkpt>
<trkpt lat="49.1373595" lon="2.7284866">
<ele>108.25</ele>
<time>2021-05-16T09:14:21Z</time>
</trkpt>
<trkpt lat="49.1371749" lon="2.7283839">
<ele>107.80</ele>
<time>2021-05-16T09:14:25Z</time>
</trkpt>
<trkpt lat="49.1369970" lon="2.7282947">
<ele>107.42</ele>
<time>2021-05-16T09:14:33Z</time>
</trkpt>
<trkpt lat="49.1368324" lon="2.7281596">
<ele>107.85</ele>
<time>2021-05-16T09:14:41Z</time>
</trkpt>
<trkpt lat="49.1366748" lon="2.7279874">
<ele>108.08</ele>
<time>2021-05-16T09:14:45Z</time>
</trkpt>
<trkpt lat="49.1365274" lon="2.7277995">
<ele>108.13</ele>
<time>2021-05-16T09:14:52Z</time>
</trkpt>
<trkpt lat="49.1363567" lon="2.7276839">
<ele>108.26</ele>
<time>2021-05-16T09:14:57Z</time>
</trkpt>
<trkpt lat="49.1361666" lon="2.7275441">
<ele>107.80</ele>
<time>2021-05-16T09:15:03Z</time>
</trkpt>
<trkpt lat="49.1359957" lon="2.7274319">
<ele>107.20</ele>
<time>2021-05-16T09:15:08Z</time>
</trkpt>
<trkpt lat="49.1358014" lon="2.7273005">
<ele>106.47</ele>
<time>2021-05-16T09:15:14Z</time>
</trkpt>
<trkpt lat="49.1356310" lon="2.7271831">
<ele>106.05</ele>
<time>2021-05-16T09:15:20Z</time>
</trkpt>
<trkpt lat="49.1354592" lon="2.7270677">
<ele>105.00</ele>
<time>2021-05-16T09:15:25Z</time>
</trkpt>
<trkpt lat="49.1352795" lon="2.7269304">
<ele>104.59</ele>
<time>2021-05-16T09:15:30Z</time>
</trkpt>
<trkpt lat="49.1351100" lon="2.7268046">
<ele>103.72</ele>
<time>2021-05-16T09:15:35Z</time>
</trkpt>
<trkpt lat="49.1349381" lon="2.7266541">
<ele>103.43</ele>
<time>2021-05-16T09:15:41Z</time>
</trkpt>
<trkpt lat="49.1348452" lon="2.7264037">
<ele>103.31</ele>
<time>2021-05-16T09:15:49Z</time>
</trkpt>
<trkpt lat="49.1346697" lon="2.7262245">
<ele>101.93</ele>
<time>2021-05-16T09:15:54Z</time>
</trkpt>
<trkpt lat="49.1344906" lon="2.7260059">
<ele>100.33</ele>
<time>2021-05-16T09:15:58Z</time>
</trkpt>
<trkpt lat="49.1343549" lon="2.7257902">
<ele>100.12</ele>
<time>2021-05-16T09:16:02Z</time>
</trkpt>
<trkpt lat="49.1342099" lon="2.7255515">
<ele>99.35</ele>
<time>2021-05-16T09:16:07Z</time>
</trkpt>
<trkpt lat="49.1340535" lon="2.7253150">
<ele>99.57</ele>
<time>2021-05-16T09:16:12Z</time>
</trkpt>
<trkpt lat="49.1339103" lon="2.7250772">
<ele>99.57</ele>
<time>2021-05-16T09:16:17Z</time>
</trkpt>
<trkpt lat="49.1337886" lon="2.7248504">
<ele>99.89</ele>
<time>2021-05-16T09:16:22Z</time>
</trkpt>
<trkpt lat="49.1336543" lon="2.7246386">
<ele>98.90</ele>
<time>2021-05-16T09:16:26Z</time>
</trkpt>
<trkpt lat="49.1334913" lon="2.7244966">
<ele>99.49</ele>
<time>2021-05-16T09:16:31Z</time>
</trkpt>
<trkpt lat="49.1333117" lon="2.7243490">
<ele>99.47</ele>
<time>2021-05-16T09:16:36Z</time>
</trkpt>
<trkpt lat="49.1331445" lon="2.7241992">
<ele>100.30</ele>
<time>2021-05-16T09:16:43Z</time>
</trkpt>
<trkpt lat="49.1329597" lon="2.7240927">
<ele>99.53</ele>
<time>2021-05-16T09:16:49Z</time>
</trkpt>
<trkpt lat="49.1327835" lon="2.7242170">
<ele>99.88</ele>
<time>2021-05-16T09:16:55Z</time>
</trkpt>
<trkpt lat="49.1326001" lon="2.7241248">
<ele>99.72</ele>
<time>2021-05-16T09:17:01Z</time>
</trkpt>
<trkpt lat="49.1324182" lon="2.7239658">
<ele>100.06</ele>
<time>2021-05-16T09:17:05Z</time>
</trkpt>
<trkpt lat="49.1322832" lon="2.7237495">
<ele>100.46</ele>
<time>2021-05-16T09:17:08Z</time>
</trkpt>
<trkpt lat="49.1321785" lon="2.7235023">
<ele>100.46</ele>
<time>2021-05-16T09:17:11Z</time>
</trkpt>
<trkpt lat="49.1320699" lon="2.7232517">
<ele>100.09</ele>
<time>2021-05-16T09:17:14Z</time>
</trkpt>
<trkpt lat="49.1319316" lon="2.7230198">
<ele>100.58</ele>
<time>2021-05-16T09:17:18Z</time>
</trkpt>
<trkpt lat="49.1318520" lon="2.7227349">
<ele>100.15</ele>
<time>2021-05-16T09:17:23Z</time>
</trkpt>
<trkpt lat="49.1317325" lon="2.7225007">
<ele>100.78</ele>
<time>2021-05-16T09:17:27Z</time>
</trkpt>
<trkpt lat="49.1315620" lon="2.7224112">
<ele>100.35</ele>
<time>2021-05-16T09:17:30Z</time>
</trkpt>
<trkpt lat="49.1313918" lon="2.7222319">
<ele>98.13</ele>
<time>2021-05-16T09:17:35Z</time>
</trkpt>
<trkpt lat="49.1312043" lon="2.7221066">
<ele>97.48</ele>
<time>2021-05-16T09:17:39Z</time>
</trkpt>
<trkpt lat="49.1310064" lon="2.7219641">
<ele>99.18</ele>
<time>2021-05-16T09:17:43Z</time>
</trkpt>
<trkpt lat="49.1308256" lon="2.7218140">
<ele>97.33</ele>
<time>2021-05-16T09:17:48Z</time>
</trkpt>
<trkpt lat="49.1306480" lon="2.7216462">
<ele>96.92</ele>
<time>2021-05-16T09:17:53Z</time>
</trkpt>
<trkpt lat="49.1304785" lon="2.7215362">
<ele>93.96</ele>
<time>2021-05-16T09:17:58Z</time>
</trkpt>
<trkpt lat="49.1302887" lon="2.7214400">
<ele>94.39</ele>
<time>2021-05-16T09:18:02Z</time>
</trkpt>
<trkpt lat="49.1301997" lon="2.7211740">
<ele>95.20</ele>
<time>2021-05-16T09:18:06Z</time>
</trkpt>
<trkpt lat="49.1301303" lon="2.7209068">
<ele>94.86</ele>
<time>2021-05-16T09:18:11Z</time>
</trkpt>
<trkpt lat="49.1300443" lon="2.7206097">
<ele>96.19</ele>
<time>2021-05-16T09:18:19Z</time>
</trkpt>
<trkpt lat="49.1299683" lon="2.7203295">
<ele>93.65</ele>
<time>2021-05-16T09:18:24Z</time>
</trkpt>
<trkpt lat="49.1300562" lon="2.7200164">
<ele>92.41</ele>
<time>2021-05-16T09:18:30Z</time>
</trkpt>
<trkpt lat="49.1301041" lon="2.7197309">
<ele>90.59</ele>
<time>2021-05-16T09:18:35Z</time>
</trkpt>
<trkpt lat="49.1301368" lon="2.7194482">
<ele>89.76</ele>
<time>2021-05-16T09:18:40Z</time>
</trkpt>
<trkpt lat="49.1301688" lon="2.7191578">
<ele>89.37</ele>
<time>2021-05-16T09:18:45Z</time>
</trkpt>
<trkpt lat="49.1302281" lon="2.7188256">
<ele>88.43</ele>
<time>2021-05-16T09:18:51Z</time>
</trkpt>
<trkpt lat="49.1302874" lon="2.7185196">
<ele>88.00</ele>
<time>2021-05-16T09:18:56Z</time>
</trkpt>
<trkpt lat="49.1303286" lon="2.7182338">
<ele>88.46</ele>
<time>2021-05-16T09:19:01Z</time>
</trkpt>
<trkpt lat="49.1303814" lon="2.7179106">
<ele>88.29</ele>
<time>2021-05-16T09:19:07Z</time>
</trkpt>
<trkpt lat="49.1304239" lon="2.7176207">
<ele>87.35</ele>
<time>2021-05-16T09:19:12Z</time>
</trkpt>
<trkpt lat="49.1304386" lon="2.7173102">
<ele>86.51</ele>
<time>2021-05-16T09:19:18Z</time>
</trkpt>
<trkpt lat="49.1304470" lon="2.7170104">
<ele>87.51</ele>
<time>2021-05-16T09:19:23Z</time>
</trkpt>
<trkpt lat="49.1304459" lon="2.7167201">
<ele>88.56</ele>
<time>2021-05-16T09:19:28Z</time>
</trkpt>
<trkpt lat="49.1304460" lon="2.7164278">
<ele>89.79</ele>
<time>2021-05-16T09:19:36Z</time>
</trkpt>
<trkpt lat="49.1305084" lon="2.7161632">
<ele>91.02</ele>
<time>2021-05-16T09:19:44Z</time>
</trkpt>
<trkpt lat="49.1303277" lon="2.7160400">
<ele>92.55</ele>
<time>2021-05-16T09:19:50Z</time>
</trkpt>
<trkpt lat="49.1301562" lon="2.7158856">
<ele>92.37</ele>
<time>2021-05-16T09:19:55Z</time>
</trkpt>
<trkpt lat="49.1300376" lon="2.7156585">
<ele>91.70</ele>
<time>2021-05-16T09:20:00Z</time>
</trkpt>
<trkpt lat="49.1299807" lon="2.7153950">
<ele>92.71</ele>
<time>2021-05-16T09:20:07Z</time>
</trkpt>
<trkpt lat="49.1299749" lon="2.7151040">
<ele>94.47</ele>
<time>2021-05-16T09:20:15Z</time>
</trkpt>
<trkpt lat="49.1299719" lon="2.7148145">
<ele>93.80</ele>
<time>2021-05-16T09:20:22Z</time>
</trkpt>
<trkpt lat="49.1298587" lon="2.7145914">
<ele>92.05</ele>
<time>2021-05-16T09:20:31Z</time>
</trkpt>
<trkpt lat="49.1299122" lon="2.7143171">
<ele>92.46</ele>
<time>2021-05-16T09:20:48Z</time>
</trkpt>
<trkpt lat="49.1300392" lon="2.7140735">
<ele>93.45</ele>
<time>2021-05-16T09:20:56Z</time>
</trkpt>
<trkpt lat="49.1301570" lon="2.7138577">
<ele>92.80</ele>
<time>2021-05-16T09:21:01Z</time>
</trkpt>
<trkpt lat="49.1303115" lon="2.7136398">
<ele>91.41</ele>
<time>2021-05-16T09:21:08Z</time>
</trkpt>
<trkpt lat="49.1305026" lon="2.7135354">
<ele>94.02</ele>
<time>2021-05-16T09:21:11Z</time>
</trkpt>
<trkpt lat="49.1306815" lon="2.7134058">
<ele>96.83</ele>
<time>2021-05-16T09:21:17Z</time>
</trkpt>
<trkpt lat="49.1309060" lon="2.7132850">
<ele>96.72</ele>
<time>2021-05-16T09:21:21Z</time>
</trkpt>
<trkpt lat="49.1310846" lon="2.7131993">
<ele>98.26</ele>
<time>2021-05-16T09:21:25Z</time>
</trkpt>
<trkpt lat="49.1313080" lon="2.7130835">
<ele>98.53</ele>
<time>2021-05-16T09:21:31Z</time>
</trkpt>
<trkpt lat="49.1314796" lon="2.7129892">
<ele>99.44</ele>
<time>2021-05-16T09:21:35Z</time>
</trkpt>
<trkpt lat="49.1316652" lon="2.7129726">
<ele>99.97</ele>
<time>2021-05-16T09:21:41Z</time>
</trkpt>
<trkpt lat="49.1318539" lon="2.7129909">
<ele>102.26</ele>
<time>2021-05-16T09:21:43Z</time>
</trkpt>
<trkpt lat="49.1320471" lon="2.7129971">
<ele>105.67</ele>
<time>2021-05-16T09:21:47Z</time>
</trkpt>
<trkpt lat="49.1322284" lon="2.7130094">
<ele>103.78</ele>
<time>2021-05-16T09:21:55Z</time>
</trkpt>
<trkpt lat="49.1323815" lon="2.7132005">
<ele>103.34</ele>
<time>2021-05-16T09:22:01Z</time>
</trkpt>
<trkpt lat="49.1324950" lon="2.7134415">
<ele>106.07</ele>
<time>2021-05-16T09:22:06Z</time>
</trkpt>
<trkpt lat="49.1325560" lon="2.7137234">
<ele>107.75</ele>
<time>2021-05-16T09:22:13Z</time>
</trkpt>
<trkpt lat="49.1325154" lon="2.7140207">
<ele>108.61</ele>
<time>2021-05-16T09:22:20Z</time>
</trkpt>
<trkpt lat="49.1323796" lon="2.7142381">
<ele>109.16</ele>
<time>2021-05-16T09:22:28Z</time>
</trkpt>
<trkpt lat="49.1323077" lon="2.7145219">
<ele>109.83</ele>
<time>2021-05-16T09:22:36Z</time>
</trkpt>
<trkpt lat="49.1323328" lon="2.7148062">
<ele>113.36</ele>
<time>2021-05-16T09:22:45Z</time>
</trkpt>
<trkpt lat="49.1323902" lon="2.7150788">
<ele>113.83</ele>
<time>2021-05-16T09:28:16Z</time>
</trkpt>
<trkpt lat="49.1323964" lon="2.7153536">
<ele>117.63</ele>
<time>2021-05-16T09:28:30Z</time>
</trkpt>
<trkpt lat="49.1323130" lon="2.7156217">
<ele>111.77</ele>
<time>2021-05-16T09:30:13Z</time>
</trkpt>
<trkpt lat="49.1322875" lon="2.7158983">
<ele>111.55</ele>
<time>2021-05-16T09:30:27Z</time>
</trkpt>
<trkpt lat="49.1323856" lon="2.7161401">
<ele>111.93</ele>
<time>2021-05-16T09:30:48Z</time>
</trkpt>
<trkpt lat="49.1324042" lon="2.7164230">
<ele>115.25</ele>
<time>2021-05-16T09:30:59Z</time>
</trkpt>
<trkpt lat="49.1324600" lon="2.7167072">
<ele>115.38</ele>
<time>2021-05-16T09:31:07Z</time>
</trkpt>
<trkpt lat="49.1324875" lon="2.7169981">
<ele>115.11</ele>
<time>2021-05-16T09:31:12Z</time>
</trkpt>
<trkpt lat="49.1325343" lon="2.7172887">
<ele>115.29</ele>
<time>2021-05-16T09:31:18Z</time>
</trkpt>
<trkpt lat="49.1325895" lon="2.7175653">
<ele>116.36</ele>
<time>2021-05-16T09:31:25Z</time>
</trkpt>
<trkpt lat="49.1326269" lon="2.7178382">
<ele>115.05</ele>
<time>2021-05-16T09:31:29Z</time>
</trkpt>
<trkpt lat="49.1327027" lon="2.7181223">
<ele>117.94</ele>
<time>2021-05-16T09:31:33Z</time>
</trkpt>
<trkpt lat="49.1327297" lon="2.7184474">
<ele>116.28</ele>
<time>2021-05-16T09:31:37Z</time>
</trkpt>
<trkpt lat="49.1327612" lon="2.7187934">
<ele>115.88</ele>
<time>2021-05-16T09:31:41Z</time>
</trkpt>
<trkpt lat="49.1328183" lon="2.7191184">
<ele>112.10</ele>
<time>2021-05-16T09:31:45Z</time>
</trkpt>
<trkpt lat="49.1329513" lon="2.7193170">
<ele>111.77</ele>
<time>2021-05-16T09:31:50Z</time>
</trkpt>
<trkpt lat="49.1331343" lon="2.7193105">
<ele>116.03</ele>
<time>2021-05-16T09:31:59Z</time>
</trkpt>
<trkpt lat="49.1333112" lon="2.7191952">
<ele>116.09</ele>
<time>2021-05-16T09:32:04Z</time>
</trkpt>
<trkpt lat="49.1334868" lon="2.7190747">
<ele>115.32</ele>
<time>2021-05-16T09:32:09Z</time>
</trkpt>
<trkpt lat="49.1336692" lon="2.7190089">
<ele>120.01</ele>
<time>2021-05-16T09:32:13Z</time>
</trkpt>
<trkpt lat="49.1338371" lon="2.7189101">
<ele>121.51</ele>
<time>2021-05-16T09:32:19Z</time>
</trkpt>
<trkpt lat="49.1340155" lon="2.7187895">
<ele>120.84</ele>
<time>2021-05-16T09:32:25Z</time>
</trkpt>
<trkpt lat="49.1342145" lon="2.7186254">
<ele>120.76</ele>
<time>2021-05-16T09:32:31Z</time>
</trkpt>
<trkpt lat="49.1344247" lon="2.7185197">
<ele>117.25</ele>
<time>2021-05-16T09:32:36Z</time>
</trkpt>
<trkpt lat="49.1346010" lon="2.7184326">
<ele>116.96</ele>
<time>2021-05-16T09:32:41Z</time>
</trkpt>
<trkpt lat="49.1347880" lon="2.7183693">
<ele>117.42</ele>
<time>2021-05-16T09:32:46Z</time>
</trkpt>
<trkpt lat="49.1349567" lon="2.7182650">
<ele>119.26</ele>
<time>2021-05-16T09:32:49Z</time>
</trkpt>
<trkpt lat="49.1351395" lon="2.7181486">
<ele>119.04</ele>
<time>2021-05-16T09:32:56Z</time>
</trkpt>
<trkpt lat="49.1353054" lon="2.7180319">
<ele>116.17</ele>
<time>2021-05-16T09:32:59Z</time>
</trkpt>
<trkpt lat="49.1354184" lon="2.7177678">
<ele>116.24</ele>
<time>2021-05-16T09:33:05Z</time>
</trkpt>
<trkpt lat="49.1354944" lon="2.7174813">
<ele>117.44</ele>
<time>2021-05-16T09:33:10Z</time>
</trkpt>
<trkpt lat="49.1355555" lon="2.7172047">
<ele>120.62</ele>
<time>2021-05-16T09:33:15Z</time>
</trkpt>
<trkpt lat="49.1356488" lon="2.7169214">
<ele>121.98</ele>
<time>2021-05-16T09:33:20Z</time>
</trkpt>
<trkpt lat="49.1357545" lon="2.7166554">
<ele>121.02</ele>
<time>2021-05-16T09:33:25Z</time>
</trkpt>
<trkpt lat="49.1358509" lon="2.7163929">
<ele>118.95</ele>
<time>2021-05-16T09:33:31Z</time>
</trkpt>
<trkpt lat="49.1359371" lon="2.7160461">
<ele>120.72</ele>
<time>2021-05-16T09:33:35Z</time>
</trkpt>
<trkpt lat="49.1360139" lon="2.7157651">
<ele>121.61</ele>
<time>2021-05-16T09:33:39Z</time>
</trkpt>
<trkpt lat="49.1361266" lon="2.7154964">
<ele>123.76</ele>
<time>2021-05-16T09:33:44Z</time>
</trkpt>
<trkpt lat="49.1363365" lon="2.7149787">
<ele>123.62</ele>
<time>2021-05-16T09:33:53Z</time>
</trkpt>
<trkpt lat="49.1364326" lon="2.7147159">
<ele>124.24</ele>
<time>2021-05-16T09:33:58Z</time>
</trkpt>
<trkpt lat="49.1365269" lon="2.7144242">
<ele>123.59</ele>
<time>2021-05-16T09:34:03Z</time>
</trkpt>
<trkpt lat="49.1366077" lon="2.7141403">
<ele>123.15</ele>
<time>2021-05-16T09:34:07Z</time>
</trkpt>
<trkpt lat="49.1367068" lon="2.7138598">
<ele>123.38</ele>
<time>2021-05-16T09:34:11Z</time>
</trkpt>
<trkpt lat="49.1368076" lon="2.7135996">
<ele>121.96</ele>
<time>2021-05-16T09:34:15Z</time>
</trkpt>
<trkpt lat="49.1368942" lon="2.7133551">
<ele>121.34</ele>
<time>2021-05-16T09:34:19Z</time>
</trkpt>
<trkpt lat="49.1369710" lon="2.7130621">
<ele>122.04</ele>
<time>2021-05-16T09:34:25Z</time>
</trkpt>
<trkpt lat="49.1370934" lon="2.7128297">
<ele>120.89</ele>
<time>2021-05-16T09:34:30Z</time>
</trkpt>
<trkpt lat="49.1371950" lon="2.7125365">
<ele>120.97</ele>
<time>2021-05-16T09:34:35Z</time>
</trkpt>
<trkpt lat="49.1373073" lon="2.7122454">
<ele>119.82</ele>
<time>2021-05-16T09:34:40Z</time>
</trkpt>
<trkpt lat="49.1374010" lon="2.7119730">
<ele>118.23</ele>
<time>2021-05-16T09:34:46Z</time>
</trkpt>
<trkpt lat="49.1374772" lon="2.7116890">
<ele>117.73</ele>
<time>2021-05-16T09:34:50Z</time>
</trkpt>
<trkpt lat="49.1375695" lon="2.7114255">
<ele>117.72</ele>
<time>2021-05-16T09:34:55Z</time>
</trkpt>
<trkpt lat="49.1376517" lon="2.7111683">
<ele>117.19</ele>
<time>2021-05-16T09:35:00Z</time>
</trkpt>
<trkpt lat="49.1377684" lon="2.7109524">
<ele>119.29</ele>
<time>2021-05-16T09:35:04Z</time>
</trkpt>
<trkpt lat="49.1378554" lon="2.7106518">
<ele>117.65</ele>
<time>2021-05-16T09:35:09Z</time>
</trkpt>
<trkpt lat="49.1379217" lon="2.7103955">
<ele>115.86</ele>
<time>2021-05-16T09:35:14Z</time>
</trkpt>
<trkpt lat="49.1380410" lon="2.7101703">
<ele>115.70</ele>
<time>2021-05-16T09:35:25Z</time>
</trkpt>
<trkpt lat="49.1381898" lon="2.7096917">
<ele>114.66</ele>
<time>2021-05-16T09:35:28Z</time>
</trkpt>
<trkpt lat="49.1382765" lon="2.7094075">
<ele>112.64</ele>
<time>2021-05-16T09:35:33Z</time>
</trkpt>
<trkpt lat="49.1383671" lon="2.7090992">
<ele>111.92</ele>
<time>2021-05-16T09:35:38Z</time>
</trkpt>
<trkpt lat="49.1384692" lon="2.7088670">
<ele>114.99</ele>
<time>2021-05-16T09:35:42Z</time>
</trkpt>
<trkpt lat="49.1385676" lon="2.7085687">
<ele>115.43</ele>
<time>2021-05-16T09:35:47Z</time>
</trkpt>
<trkpt lat="49.1386647" lon="2.7082808">
<ele>116.72</ele>
<time>2021-05-16T09:35:53Z</time>
</trkpt>
<trkpt lat="49.1387558" lon="2.7079733">
<ele>121.42</ele>
<time>2021-05-16T09:35:58Z</time>
</trkpt>
<trkpt lat="49.1388423" lon="2.7076986">
<ele>122.86</ele>
<time>2021-05-16T09:36:02Z</time>
</trkpt>
<trkpt lat="49.1389413" lon="2.7074284">
<ele>122.68</ele>
<time>2021-05-16T09:36:07Z</time>
</trkpt>
<trkpt lat="49.1390498" lon="2.7071317">
<ele>122.19</ele>
<time>2021-05-16T09:36:12Z</time>
</trkpt>
<trkpt lat="49.1391368" lon="2.7068555">
<ele>119.90</ele>
<time>2021-05-16T09:36:17Z</time>
</trkpt>
<trkpt lat="49.1392302" lon="2.7065905">
<ele>119.49</ele>
<time>2021-05-16T09:36:22Z</time>
</trkpt>
<trkpt lat="49.1393175" lon="2.7062865">
<ele>117.37</ele>
<time>2021-05-16T09:36:27Z</time>
</trkpt>
<trkpt lat="49.1394305" lon="2.7060656">
<ele>118.68</ele>
<time>2021-05-16T09:36:35Z</time>
</trkpt>
<trkpt lat="49.1395082" lon="2.7057886">
<ele>119.73</ele>
<time>2021-05-16T09:36:45Z</time>
</trkpt>
<trkpt lat="49.1396031" lon="2.7055265">
<ele>119.56</ele>
<time>2021-05-16T09:36:51Z</time>
</trkpt>
<trkpt lat="49.1396213" lon="2.7052145">
<ele>118.96</ele>
<time>2021-05-16T09:36:57Z</time>
</trkpt>
<trkpt lat="49.1396252" lon="2.7049355">
<ele>115.40</ele>
<time>2021-05-16T09:37:03Z</time>
</trkpt>
<trkpt lat="49.1396096" lon="2.7046565">
<ele>114.84</ele>
<time>2021-05-16T09:37:11Z</time>
</trkpt>
<trkpt lat="49.1394800" lon="2.7044309">
<ele>114.67</ele>
<time>2021-05-16T09:37:19Z</time>
</trkpt>
<trkpt lat="49.1393049" lon="2.7043151">
<ele>115.06</ele>
<time>2021-05-16T09:37:30Z</time>
</trkpt>
<trkpt lat="49.1391169" lon="2.7042522">
<ele>115.25</ele>
<time>2021-05-16T09:37:38Z</time>
</trkpt>
<trkpt lat="49.1389503" lon="2.7041289">
<ele>117.34</ele>
<time>2021-05-16T09:37:47Z</time>
</trkpt>
<trkpt lat="49.1387885" lon="2.7040084">
<ele>117.47</ele>
<time>2021-05-16T09:37:57Z</time>
</trkpt>
<trkpt lat="49.1386232" lon="2.7038699">
<ele>116.43</ele>
<time>2021-05-16T09:38:04Z</time>
</trkpt>
<trkpt lat="49.1384248" lon="2.7038231">
<ele>116.25</ele>
<time>2021-05-16T09:38:12Z</time>
</trkpt>
<trkpt lat="49.1382216" lon="2.7038714">
<ele>116.20</ele>
<time>2021-05-16T09:38:19Z</time>
</trkpt>
<trkpt lat="49.1380169" lon="2.7039249">
<ele>116.86</ele>
<time>2021-05-16T09:38:25Z</time>
</trkpt>
<trkpt lat="49.1378141" lon="2.7039815">
<ele>116.21</ele>
<time>2021-05-16T09:38:30Z</time>
</trkpt>
<trkpt lat="49.1376675" lon="2.7041930">
<ele>115.14</ele>
<time>2021-05-16T09:38:35Z</time>
</trkpt>
<trkpt lat="49.1375905" lon="2.7044463">
<ele>116.52</ele>
<time>2021-05-16T09:38:39Z</time>
</trkpt>
<trkpt lat="49.1375089" lon="2.7047730">
<ele>117.35</ele>
<time>2021-05-16T09:38:43Z</time>
</trkpt>
<trkpt lat="49.1374359" lon="2.7050897">
<ele>116.80</ele>
<time>2021-05-16T09:38:47Z</time>
</trkpt>
<trkpt lat="49.1373033" lon="2.7052892">
<ele>117.23</ele>
<time>2021-05-16T09:38:51Z</time>
</trkpt>
<trkpt lat="49.1371362" lon="2.7053932">
<ele>120.21</ele>
<time>2021-05-16T09:38:58Z</time>
</trkpt>
<trkpt lat="49.1370558" lon="2.7051306">
<ele>119.52</ele>
<time>2021-05-16T09:39:09Z</time>
</trkpt>
<trkpt lat="49.1371981" lon="2.7049112">
<ele>115.45</ele>
<time>2021-05-16T09:39:17Z</time>
</trkpt>
<trkpt lat="49.1373113" lon="2.7046204">
<ele>115.65</ele>
<time>2021-05-16T09:39:24Z</time>
</trkpt>
<trkpt lat="49.1374124" lon="2.7043725">
<ele>113.17</ele>
<time>2021-05-16T09:39:29Z</time>
</trkpt>
<trkpt lat="49.1375295" lon="2.7041612">
<ele>116.62</ele>
<time>2021-05-16T09:39:38Z</time>
</trkpt>
<trkpt lat="49.1377267" lon="2.7040488">
<ele>119.29</ele>
<time>2021-05-16T09:39:47Z</time>
</trkpt>
<trkpt lat="49.1378601" lon="2.7038512">
<ele>118.86</ele>
<time>2021-05-16T09:39:55Z</time>
</trkpt>
<trkpt lat="49.1378313" lon="2.7035521">
<ele>115.60</ele>
<time>2021-05-16T09:40:00Z</time>
</trkpt>
<trkpt lat="49.1378216" lon="2.7032707">
<ele>113.04</ele>
<time>2021-05-16T09:40:07Z</time>
</trkpt>
<trkpt lat="49.1377630" lon="2.7029607">
<ele>112.55</ele>
<time>2021-05-16T09:40:17Z</time>
</trkpt>
<trkpt lat="49.1377521" lon="2.7026277">
<ele>105.38</ele>
<time>2021-05-16T09:40:21Z</time>
</trkpt>
<trkpt lat="49.1376662" lon="2.7023293">
<ele>101.33</ele>
<time>2021-05-16T09:40:24Z</time>
</trkpt>
<trkpt lat="49.1376039" lon="2.7020469">
<ele>99.48</ele>
<time>2021-05-16T09:40:27Z</time>
</trkpt>
<trkpt lat="49.1375844" lon="2.7017659">
<ele>93.17</ele>
<time>2021-05-16T09:40:32Z</time>
</trkpt>
<trkpt lat="49.1374493" lon="2.7015479">
<ele>86.52</ele>
<time>2021-05-16T09:42:05Z</time>
</trkpt>
<trkpt lat="49.1372774" lon="2.7014151">
<ele>87.29</ele>
<time>2021-05-16T09:42:11Z</time>
</trkpt>
<trkpt lat="49.1371033" lon="2.7012639">
<ele>86.22</ele>
<time>2021-05-16T09:42:17Z</time>
</trkpt>
<trkpt lat="49.1369271" lon="2.7011649">
<ele>85.95</ele>
<time>2021-05-16T09:42:22Z</time>
</trkpt>
<trkpt lat="49.1367479" lon="2.7011004">
<ele>85.70</ele>
<time>2021-05-16T09:42:26Z</time>
</trkpt>
<trkpt lat="49.1365375" lon="2.7010058">
<ele>86.35</ele>
<time>2021-05-16T09:42:31Z</time>
</trkpt>
<trkpt lat="49.1363873" lon="2.7011793">
<ele>87.04</ele>
<time>2021-05-16T09:42:42Z</time>
</trkpt>
<trkpt lat="49.1364378" lon="2.7014638">
<ele>87.62</ele>
<time>2021-05-16T09:42:48Z</time>
</trkpt>
<trkpt lat="49.1364873" lon="2.7017742">
<ele>83.30</ele>
<time>2021-05-16T09:42:55Z</time>
</trkpt>
<trkpt lat="49.1365246" lon="2.7020615">
<ele>87.59</ele>
<time>2021-05-16T09:43:01Z</time>
</trkpt>
<trkpt lat="49.1365910" lon="2.7023694">
<ele>86.20</ele>
<time>2021-05-16T09:43:08Z</time>
</trkpt>
<trkpt lat="49.1366305" lon="2.7026913">
<ele>90.46</ele>
<time>2021-05-16T09:43:14Z</time>
</trkpt>
<trkpt lat="49.1366954" lon="2.7029950">
<ele>94.23</ele>
<time>2021-05-16T09:43:20Z</time>
</trkpt>
<trkpt lat="49.1367398" lon="2.7032855">
<ele>97.24</ele>
<time>2021-05-16T09:43:26Z</time>
</trkpt>
<trkpt lat="49.1368065" lon="2.7035534">
<ele>104.49</ele>
<time>2021-05-16T09:43:34Z</time>
</trkpt>
<trkpt lat="49.1368468" lon="2.7038616">
<ele>103.66</ele>
<time>2021-05-16T09:43:42Z</time>
</trkpt>
<trkpt lat="49.1368731" lon="2.7041414">
<ele>105.93</ele>
<time>2021-05-16T09:43:50Z</time>
</trkpt>
<trkpt lat="49.1369262" lon="2.7044140">
<ele>107.43</ele>
<time>2021-05-16T09:43:57Z</time>
</trkpt>
<trkpt lat="49.1370028" lon="2.7046887">
<ele>107.60</ele>
<time>2021-05-16T09:44:05Z</time>
</trkpt>
<trkpt lat="49.1371104" lon="2.7049109">
<ele>109.44</ele>
<time>2021-05-16T09:44:13Z</time>
</trkpt>
<trkpt lat="49.1370122" lon="2.7051444">
<ele>108.95</ele>
<time>2021-05-16T09:44:21Z</time>
</trkpt>
<trkpt lat="49.1368846" lon="2.7053448">
<ele>110.08</ele>
<time>2021-05-16T09:44:34Z</time>
</trkpt>
<trkpt lat="49.1367265" lon="2.7051760">
<ele>112.06</ele>
<time>2021-05-16T09:44:40Z</time>
</trkpt>
<trkpt lat="49.1366115" lon="2.7049506">
<ele>112.94</ele>
<time>2021-05-16T09:44:45Z</time>
</trkpt>
<trkpt lat="49.1364774" lon="2.7047425">
<ele>113.98</ele>
<time>2021-05-16T09:44:51Z</time>
</trkpt>
<trkpt lat="49.1363310" lon="2.7045476">
<ele>114.70</ele>
<time>2021-05-16T09:44:59Z</time>
</trkpt>
<trkpt lat="49.1361255" lon="2.7045785">
<ele>113.22</ele>
<time>2021-05-16T09:45:06Z</time>
</trkpt>
<trkpt lat="49.1359310" lon="2.7046677">
<ele>113.26</ele>
<time>2021-05-16T09:45:12Z</time>
</trkpt>
<trkpt lat="49.1357433" lon="2.7046753">
<ele>113.38</ele>
<time>2021-05-16T09:45:18Z</time>
</trkpt>
<trkpt lat="49.1355494" lon="2.7047319">
<ele>113.28</ele>
<time>2021-05-16T09:45:24Z</time>
</trkpt>
<trkpt lat="49.1353422" lon="2.7047962">
<ele>114.98</ele>
<time>2021-05-16T09:45:30Z</time>
</trkpt>
<trkpt lat="49.1351333" lon="2.7048099">
<ele>117.69</ele>
<time>2021-05-16T09:45:35Z</time>
</trkpt>
<trkpt lat="49.1349200" lon="2.7048933">
<ele>118.96</ele>
<time>2021-05-16T09:45:40Z</time>
</trkpt>
<trkpt lat="49.1347096" lon="2.7049183">
<ele>119.27</ele>
<time>2021-05-16T09:45:45Z</time>
</trkpt>
<trkpt lat="49.1344917" lon="2.7049943">
<ele>118.73</ele>
<time>2021-05-16T09:45:50Z</time>
</trkpt>
<trkpt lat="49.1343004" lon="2.7050508">
<ele>118.91</ele>
<time>2021-05-16T09:45:56Z</time>
</trkpt>
<trkpt lat="49.1341218" lon="2.7050984">
<ele>115.01</ele>
<time>2021-05-16T09:46:20Z</time>
</trkpt>
<trkpt lat="49.1339274" lon="2.7051567">
<ele>114.51</ele>
<time>2021-05-16T09:46:26Z</time>
</trkpt>
<trkpt lat="49.1337323" lon="2.7052514">
<ele>115.12</ele>
<time>2021-05-16T09:46:31Z</time>
</trkpt>
<trkpt lat="49.1335382" lon="2.7053248">
<ele>115.80</ele>
<time>2021-05-16T09:46:35Z</time>
</trkpt>
<trkpt lat="49.1333233" lon="2.7054029">
<ele>116.07</ele>
<time>2021-05-16T09:46:39Z</time>
</trkpt>
<trkpt lat="49.1331295" lon="2.7055035">
<ele>114.75</ele>
<time>2021-05-16T09:46:43Z</time>
</trkpt>
<trkpt lat="49.1330045" lon="2.7057246">
<ele>115.28</ele>
<time>2021-05-16T09:46:47Z</time>
</trkpt>
<trkpt lat="49.1328208" lon="2.7059269">
<ele>114.39</ele>
<time>2021-05-16T09:46:51Z</time>
</trkpt>
<trkpt lat="49.1326585" lon="2.7060817">
<ele>115.97</ele>
<time>2021-05-16T09:46:55Z</time>
</trkpt>
<trkpt lat="49.1325094" lon="2.7062846">
<ele>115.41</ele>
<time>2021-05-16T09:46:58Z</time>
</trkpt>
<trkpt lat="49.1323564" lon="2.7064786">
<ele>113.30</ele>
<time>2021-05-16T09:47:01Z</time>
</trkpt>
<trkpt lat="49.1321838" lon="2.7066576">
<ele>114.48</ele>
<time>2021-05-16T09:47:04Z</time>
</trkpt>
<trkpt lat="49.1320694" lon="2.7068766">
<ele>116.18</ele>
<time>2021-05-16T09:47:07Z</time>
</trkpt>
<trkpt lat="49.1319515" lon="2.7071337">
<ele>115.23</ele>
<time>2021-05-16T09:47:10Z</time>
</trkpt>
<trkpt lat="49.1318347" lon="2.7073749">
<ele>115.35</ele>
<time>2021-05-16T09:47:13Z</time>
</trkpt>
<trkpt lat="49.1317186" lon="2.7076129">
<ele>114.78</ele>
<time>2021-05-16T09:47:16Z</time>
</trkpt>
<trkpt lat="49.1316219" lon="2.7078704">
<ele>112.52</ele>
<time>2021-05-16T09:47:20Z</time>
</trkpt>
<trkpt lat="49.1314789" lon="2.7081503">
<ele>109.63</ele>
<time>2021-05-16T09:47:24Z</time>
</trkpt>
<trkpt lat="49.1313412" lon="2.7084524">
<ele>109.69</ele>
<time>2021-05-16T09:47:28Z</time>
</trkpt>
<trkpt lat="49.1311957" lon="2.7087134">
<ele>107.20</ele>
<time>2021-05-16T09:47:32Z</time>
</trkpt>
<trkpt lat="49.1310545" lon="2.7088930">
<ele>107.70</ele>
<time>2021-05-16T09:47:35Z</time>
</trkpt>
<trkpt lat="49.1309030" lon="2.7090618">
<ele>108.06</ele>
<time>2021-05-16T09:47:38Z</time>
</trkpt>
<trkpt lat="49.1307331" lon="2.7093089">
<ele>108.84</ele>
<time>2021-05-16T09:47:44Z</time>
</trkpt>
<trkpt lat="49.1306413" lon="2.7095827">
<ele>109.52</ele>
<time>2021-05-16T09:47:48Z</time>
</trkpt>
<trkpt lat="49.1305381" lon="2.7098480">
<ele>107.53</ele>
<time>2021-05-16T09:47:53Z</time>
</trkpt>
<trkpt lat="49.1306238" lon="2.7096019">
<ele>109.52</ele>
<time>2021-05-16T09:48:29Z</time>
</trkpt>
<trkpt lat="49.1307324" lon="2.7093823">
<ele>109.39</ele>
<time>2021-05-16T09:48:48Z</time>
</trkpt>
<trkpt lat="49.1305938" lon="2.7095856">
<ele>109.52</ele>
<time>2021-05-16T09:50:46Z</time>
</trkpt>
<trkpt lat="49.1304842" lon="2.7098504">
<ele>110.83</ele>
<time>2021-05-16T09:50:51Z</time>
</trkpt>
<trkpt lat="49.1303991" lon="2.7100990">
<ele>109.34</ele>
<time>2021-05-16T09:50:55Z</time>
</trkpt>
<trkpt lat="49.1302938" lon="2.7103803">
<ele>108.80</ele>
<time>2021-05-16T09:51:00Z</time>
</trkpt>
<trkpt lat="49.1301436" lon="2.7105411">
<ele>107.75</ele>
<time>2021-05-16T09:51:04Z</time>
</trkpt>
<trkpt lat="49.1299944" lon="2.7103649">
<ele>103.83</ele>
<time>2021-05-16T09:51:11Z</time>
</trkpt>
<trkpt lat="49.1298381" lon="2.7102274">
<ele>102.71</ele>
<time>2021-05-16T09:51:22Z</time>
</trkpt>
<trkpt lat="49.1297820" lon="2.7099446">
<ele>102.32</ele>
<time>2021-05-16T09:51:35Z</time>
</trkpt>
<trkpt lat="49.1297406" lon="2.7096373">
<ele>101.68</ele>
<time>2021-05-16T09:51:42Z</time>
</trkpt>
<trkpt lat="49.1297718" lon="2.7092684">
<ele>100.56</ele>
<time>2021-05-16T09:51:48Z</time>
</trkpt>
<trkpt lat="49.1298267" lon="2.7089415">
<ele>102.35</ele>
<time>2021-05-16T09:51:53Z</time>
</trkpt>
<trkpt lat="49.1299550" lon="2.7086684">
<ele>104.63</ele>
<time>2021-05-16T09:51:59Z</time>
</trkpt>
<trkpt lat="49.1300543" lon="2.7083986">
<ele>104.02</ele>
<time>2021-05-16T09:52:03Z</time>
</trkpt>
<trkpt lat="49.1301555" lon="2.7081707">
<ele>105.31</ele>
<time>2021-05-16T09:52:08Z</time>
</trkpt>
<trkpt lat="49.1302359" lon="2.7079226">
<ele>104.75</ele>
<time>2021-05-16T09:52:14Z</time>
</trkpt>
<trkpt lat="49.1302894" lon="2.7076227">
<ele>107.13</ele>
<time>2021-05-16T09:52:20Z</time>
</trkpt>
<trkpt lat="49.1303341" lon="2.7073180">
<ele>109.66</ele>
<time>2021-05-16T09:52:26Z</time>
</trkpt>
<trkpt lat="49.1303516" lon="2.7070401">
<ele>110.64</ele>
<time>2021-05-16T09:52:34Z</time>
</trkpt>
<trkpt lat="49.1302976" lon="2.7067524">
<ele>108.89</ele>
<time>2021-05-16T09:53:09Z</time>
</trkpt>
<trkpt lat="49.1302764" lon="2.7064762">
<ele>107.21</ele>
<time>2021-05-16T09:53:14Z</time>
</trkpt>
<trkpt lat="49.1302608" lon="2.7061642">
<ele>108.40</ele>
<time>2021-05-16T09:53:19Z</time>
</trkpt>
<trkpt lat="49.1302938" lon="2.7058397">
<ele>107.68</ele>
<time>2021-05-16T09:53:24Z</time>
</trkpt>
<trkpt lat="49.1302577" lon="2.7055246">
<ele>106.98</ele>
<time>2021-05-16T09:53:29Z</time>
</trkpt>
<trkpt lat="49.1300649" lon="2.7054108">
<ele>97.78</ele>
<time>2021-05-16T09:53:38Z</time>
</trkpt>
<trkpt lat="49.1298954" lon="2.7052714">
<ele>107.41</ele>
<time>2021-05-16T09:53:45Z</time>
</trkpt>
<trkpt lat="49.1297072" lon="2.7051783">
<ele>109.38</ele>
<time>2021-05-16T09:53:50Z</time>
</trkpt>
<trkpt lat="49.1295540" lon="2.7050249">
<ele>106.67</ele>
<time>2021-05-16T09:53:53Z</time>
</trkpt>
<trkpt lat="49.1293802" lon="2.7048985">
<ele>104.99</ele>
<time>2021-05-16T09:53:56Z</time>
</trkpt>
<trkpt lat="49.1292020" lon="2.7047722">
<ele>99.79</ele>
<time>2021-05-16T09:54:00Z</time>
</trkpt>
<trkpt lat="49.1290339" lon="2.7046407">
<ele>89.44</ele>
<time>2021-05-16T09:54:09Z</time>
</trkpt>
<trkpt lat="49.1288678" lon="2.7045283">
<ele>86.38</ele>
<time>2021-05-16T09:54:18Z</time>
</trkpt>
<trkpt lat="49.1288330" lon="2.7042559">
<ele>84.36</ele>
<time>2021-05-16T09:54:26Z</time>
</trkpt>
<trkpt lat="49.1287311" lon="2.7040227">
<ele>80.71</ele>
<time>2021-05-16T09:54:32Z</time>
</trkpt>
<trkpt lat="49.1286868" lon="2.7037146">
<ele>80.18</ele>
<time>2021-05-16T09:54:38Z</time>
</trkpt>
<trkpt lat="49.1286256" lon="2.7034036">
<ele>81.35</ele>
<time>2021-05-16T09:54:44Z</time>
</trkpt>
<trkpt lat="49.1285891" lon="2.7030877">
<ele>81.94</ele>
<time>2021-05-16T09:54:49Z</time>
</trkpt>
<trkpt lat="49.1285720" lon="2.7027731">
<ele>82.75</ele>
<time>2021-05-16T09:54:54Z</time>
</trkpt>
<trkpt lat="49.1284103" lon="2.7026370">
<ele>82.02</ele>
<time>2021-05-16T09:55:00Z</time>
</trkpt>
<trkpt lat="49.1282100" lon="2.7026436">
<ele>80.91</ele>
<time>2021-05-16T09:55:06Z</time>
</trkpt>
<trkpt lat="49.1280377" lon="2.7024830">
<ele>81.69</ele>
<time>2021-05-16T09:55:12Z</time>
</trkpt>
<trkpt lat="49.1278687" lon="2.7022882">
<ele>81.52</ele>
<time>2021-05-16T09:55:18Z</time>
</trkpt>
<trkpt lat="49.1277155" lon="2.7021107">
<ele>81.11</ele>
<time>2021-05-16T09:55:23Z</time>
</trkpt>
<trkpt lat="49.1275551" lon="2.7019360">
<ele>82.40</ele>
<time>2021-05-16T09:55:28Z</time>
</trkpt>
<trkpt lat="49.1273936" lon="2.7016182">
<ele>82.20</ele>
<time>2021-05-16T09:55:33Z</time>
</trkpt>
<trkpt lat="49.1273935" lon="2.7012912">
<ele>82.32</ele>
<time>2021-05-16T09:55:37Z</time>
</trkpt>
<trkpt lat="49.1274262" lon="2.7009884">
<ele>82.56</ele>
<time>2021-05-16T09:55:41Z</time>
</trkpt>
<trkpt lat="49.1274623" lon="2.7007077">
<ele>82.87</ele>
<time>2021-05-16T09:55:45Z</time>
</trkpt>
<trkpt lat="49.1275089" lon="2.7004329">
<ele>82.38</ele>
<time>2021-05-16T09:55:49Z</time>
</trkpt>
<trkpt lat="49.1274552" lon="2.7001352">
<ele>82.74</ele>
<time>2021-05-16T09:55:56Z</time>
</trkpt>
<trkpt lat="49.1272758" lon="2.6999871">
<ele>82.87</ele>
<time>2021-05-16T09:56:00Z</time>
</trkpt>
<trkpt lat="49.1271151" lon="2.6998178">
<ele>82.72</ele>
<time>2021-05-16T09:56:05Z</time>
</trkpt>
<trkpt lat="49.1269956" lon="2.6995970">
<ele>82.71</ele>
<time>2021-05-16T09:56:10Z</time>
</trkpt>
<trkpt lat="49.1268588" lon="2.6993654">
<ele>83.42</ele>
<time>2021-05-16T09:56:15Z</time>
</trkpt>
<trkpt lat="49.1267072" lon="2.6992097">
<ele>85.60</ele>
<time>2021-05-16T09:56:21Z</time>
</trkpt>
<trkpt lat="49.1265770" lon="2.6989528">
<ele>87.74</ele>
<time>2021-05-16T09:56:27Z</time>
</trkpt>
<trkpt lat="49.1264530" lon="2.6987458">
<ele>88.62</ele>
<time>2021-05-16T09:56:33Z</time>
</trkpt>
<trkpt lat="49.1263496" lon="2.6984876">
<ele>91.82</ele>
<time>2021-05-16T09:56:41Z</time>
</trkpt>
<trkpt lat="49.1262863" lon="2.6981923">
<ele>95.01</ele>
<time>2021-05-16T09:56:50Z</time>
</trkpt>
<trkpt lat="49.1262089" lon="2.6979348">
<ele>95.78</ele>
<time>2021-05-16T09:56:56Z</time>
</trkpt>
<trkpt lat="49.1260761" lon="2.6976812">
<ele>97.26</ele>
<time>2021-05-16T09:57:02Z</time>
</trkpt>
<trkpt lat="49.1259348" lon="2.6974568">
<ele>99.74</ele>
<time>2021-05-16T09:57:08Z</time>
</trkpt>
<trkpt lat="49.1258128" lon="2.6972257">
<ele>101.05</ele>
<time>2021-05-16T09:57:13Z</time>
</trkpt>
<trkpt lat="49.1256292" lon="2.6971018">
<ele>101.37</ele>
<time>2021-05-16T09:57:18Z</time>
</trkpt>
<trkpt lat="49.1254407" lon="2.6971054">
<ele>101.55</ele>
<time>2021-05-16T09:57:23Z</time>
</trkpt>
<trkpt lat="49.1252166" lon="2.6971230">
<ele>100.44</ele>
<time>2021-05-16T09:57:28Z</time>
</trkpt>
<trkpt lat="49.1251044" lon="2.6968856">
<ele>99.32</ele>
<time>2021-05-16T09:57:34Z</time>
</trkpt>
<trkpt lat="49.1252243" lon="2.6966040">
<ele>97.05</ele>
<time>2021-05-16T09:57:39Z</time>
</trkpt>
<trkpt lat="49.1253278" lon="2.6963387">
<ele>95.94</ele>
<time>2021-05-16T09:57:43Z</time>
</trkpt>
<trkpt lat="49.1253219" lon="2.6960470">
<ele>91.99</ele>
<time>2021-05-16T09:57:51Z</time>
</trkpt>
<trkpt lat="49.1253977" lon="2.6957416">
<ele>92.15</ele>
<time>2021-05-16T09:57:57Z</time>
</trkpt>
<trkpt lat="49.1255105" lon="2.6954972">
<ele>91.66</ele>
<time>2021-05-16T09:58:02Z</time>
</trkpt>
<trkpt lat="49.1255248" lon="2.6952148">
<ele>90.91</ele>
<time>2021-05-16T09:58:07Z</time>
</trkpt>
<trkpt lat="49.1255155" lon="2.6949070">
<ele>88.79</ele>
<time>2021-05-16T09:58:11Z</time>
</trkpt>
<trkpt lat="49.1255077" lon="2.6945858">
<ele>85.59</ele>
<time>2021-05-16T09:58:17Z</time>
</trkpt>
<trkpt lat="49.1255372" lon="2.6942547">
<ele>82.62</ele>
<time>2021-05-16T09:58:22Z</time>
</trkpt>
<trkpt lat="49.1255616" lon="2.6939049">
<ele>79.81</ele>
<time>2021-05-16T09:58:26Z</time>
</trkpt>
<trkpt lat="49.1255829" lon="2.6936060">
<ele>78.36</ele>
<time>2021-05-16T09:58:30Z</time>
</trkpt>
<trkpt lat="49.1255479" lon="2.6933042">
<ele>77.87</ele>
<time>2021-05-16T09:58:36Z</time>
</trkpt>
</trkseg>
</trk>
</gpx>
